Time,TemperatureF,DewpointF,PressureIn,WindDirection,WindDirectionDegrees,WindSpeedMPH,WindSpeedGustMPH,Humidity,HourlyPrecipIn,Conditions,Clouds,dailyrainin,SoftwareType,DateUTC
2013-04-17 00:00:00,28.2,22.6,29.06,ENE,68,0.0,0.0,79,0.00,,---,0.00,VWS V14.01,2013-04-17 05:00:00,
2013-04-17 00:01:00,28.2,22.6,29.06,NNE,22,0.0,1.3,79,0.00,,---,0.00,VWS V14.01,2013-04-17 05:01:00,
2013-04-17 00:02:00,28.2,22.6,29.06,NNE,22,0.0,0.0,79,0.00,,---,0.00,VWS V14.01,2013-04-17 05:02:00,
2013-04-17 00:04:00,28.2,22.6,29.06,NNE,22,0.0,1.3,79,0.00,,---,0.00,VWS V14.01,2013-04-17 05:04:00,
2013-04-17 00:06:00,28.4,22.7,29.06,NE,45,0.9,2.0,79,0.00,,---,0.00,VWS V14.01,2013-04-17 05:06:00,
2013-04-17 00:08:00,28.4,22.7,29.06,ENE,68,2.0,2.0,79,0.00,,---,0.00,VWS V14.01,2013-04-17 05:08:00,
2013-04-17 00:10:00,28.4,22.7,29.06,NE,45,0.9,2.0,79,0.00,,---,0.00,VWS V14.01,2013-04-17 05:10:00,
2013-04-17 00:11:00,28.8,23.1,29.09,ENE,68,0.0,0.0,79,0.00,,---,0.00,VWS V14.01,2013-04-17 05:11:00,
2013-04-17 00:12:00,28.4,22.7,29.09,ENE,68,0.0,2.2,79,0.00,,---,0.00,VWS V14.01,2013-04-17 05:12:00,
2013-04-17 00:14:00,28.6,22.9,29.09,NE,45,0.0,0.0,79,0.00,,---,0.00,VWS V14.01,2013-04-17 05:14:00,
2013-04-17 00:16:00,28.8,23.1,29.09,ENE,68,0.0,0.0,79,0.00,,---,0.00,VWS V14.01,2013-04-17 05:16:00,
2013-04-17 00:18:00,28.8,23.1,29.09,ENE,68,0.0,0.0,79,0.00,,---,0.00,VWS V14.01,2013-04-17 05:18:00,
2013-04-17 00:20:00,28.8,23.1,29.09,ENE,68,0.0,0.0,79,0.00,,---,0.00,VWS V14.01,2013-04-17 05:20:00,
2013-04-17 00:21:00,28.9,23.3,29.06,ENE,68,2.2,2.2,79,0.00,,---,0.00,VWS V14.01,2013-04-17 05:21:00,
2013-04-17 00:22:00,28.9,23.3,29.09,ENE,68,2.0,2.5,79,0.00,,---,0.00,VWS V14.01,2013-04-17 05:22:00,
2013-04-17 00:24:00,28.9,23.3,29.06,NNE,22,2.0,2.0,79,0.00,,---,0.00,VWS V14.01,2013-04-17 05:24:00,
2013-04-17 00:26:00,29.3,23.6,29.06,NE,45,2.0,2.5,79,0.00,,---,0.00,VWS V14.01,2013-04-17 05:26:00,
2013-04-17 00:28:00,29.1,23.4,29.06,NE,45,1.1,2.9,79,0.00,,---,0.00,VWS V14.01,2013-04-17 05:28:00,
2013-04-17 00:30:00,29.3,23.6,29.06,NE,45,1.3,2.5,79,0.00,,---,0.00,VWS V14.01,2013-04-17 05:30:00,
2013-04-17 00:31:00,29.5,23.8,29.06,WNW,292,2.0,2.5,79,0.00,,---,0.00,VWS V14.01,2013-04-17 05:31:00,
2013-04-17 00:32:00,29.5,23.8,29.06,NNW,338,1.6,2.9,79,0.00,,---,0.00,VWS V14.01,2013-04-17 05:32:00,
2013-04-17 00:34:00,29.5,23.8,29.06,NW,315,2.2,2.5,79,0.00,,---,0.00,VWS V14.01,2013-04-17 05:34:00,
2013-04-17 00:36:00,29.1,23.4,29.09,WNW,292,2.0,2.5,79,0.00,,---,0.00,VWS V14.01,2013-04-17 05:36:00,
2013-04-17 00:38:00,29.3,23.6,29.06,WNW,292,2.0,2.5,79,0.00,,---,0.00,VWS V14.01,2013-04-17 05:38:00,
2013-04-17 00:40:00,29.1,23.4,29.09,WNW,292,2.0,2.5,79,0.00,,---,0.00,VWS V14.01,2013-04-17 05:40:00,
2013-04-17 00:41:00,29.1,23.7,29.09,North,0,0.0,0.0,80,0.00,,---,0.00,VWS V14.01,2013-04-17 05:41:00,
2013-04-17 00:42:00,29.1,23.7,29.09,NNW,338,0.0,2.0,80,0.00,,---,0.00,VWS V14.01,2013-04-17 05:42:00,
2013-04-17 00:44:00,29.1,23.7,29.09,NNE,22,0.0,0.0,80,0.00,,---,0.00,VWS V14.01,2013-04-17 05:44:00,
2013-04-17 00:46:00,29.3,23.9,29.09,NNW,338,2.2,2.5,80,0.00,,---,0.00,VWS V14.01,2013-04-17 05:46:00,
2013-04-17 00:48:00,29.3,23.9,29.09,North,0,0.0,0.0,80,0.00,,---,0.00,VWS V14.01,2013-04-17 05:48:00,
2013-04-17 00:50:00,29.3,23.9,29.09,WNW,292,2.0,2.5,80,0.00,,---,0.00,VWS V14.01,2013-04-17 05:50:00,
2013-04-17 00:51:00,29.5,24.1,29.09,NNE,22,3.1,3.4,80,0.00,,---,0.00,VWS V14.01,2013-04-17 05:51:00,
2013-04-17 00:52:00,29.5,24.1,29.09,NNW,338,1.3,2.2,80,0.00,,---,0.00,VWS V14.01,2013-04-17 05:52:00,
2013-04-17 00:54:00,29.5,24.1,29.09,North,0,2.9,2.9,80,0.00,,---,0.00,VWS V14.01,2013-04-17 05:54:00,
2013-04-17 00:56:00,29.8,24.7,29.09,NE,45,4.0,4.9,81,0.00,,---,0.00,VWS V14.01,2013-04-17 05:56:00,
2013-04-17 00:58:00,29.7,24.6,29.09,NE,45,4.5,4.9,81,0.00,,---,0.00,VWS V14.01,2013-04-17 05:58:00,
2013-04-17 01:00:00,29.8,24.7,29.09,NE,45,4.5,4.9,81,0.00,,---,0.00,VWS V14.01,2013-04-17 06:00:00,
2013-04-17 01:01:00,30.2,25.4,29.09,NE,45,5.8,5.8,82,0.00,,---,0.00,VWS V14.01,2013-04-17 06:01:00,
2013-04-17 01:02:00,30.0,25.2,29.09,ENE,68,2.7,5.6,82,0.00,,---,0.00,VWS V14.01,2013-04-17 06:02:00,
2013-04-17 01:04:00,30.2,25.4,29.09,SE,135,4.3,4.7,82,0.00,,---,0.00,VWS V14.01,2013-04-17 06:04:00,
2013-04-17 01:06:00,30.7,25.6,29.09,NE,45,4.3,5.4,81,0.00,,---,0.00,VWS V14.01,2013-04-17 06:06:00,
2013-04-17 01:08:00,30.6,25.7,29.09,NE,45,4.0,5.6,82,0.00,,---,0.00,VWS V14.01,2013-04-17 06:08:00,
2013-04-17 01:10:00,30.7,25.6,29.09,NE,45,4.3,5.4,81,0.00,,---,0.00,VWS V14.01,2013-04-17 06:10:00,
2013-04-17 01:11:00,30.9,25.5,29.09,ENE,68,2.9,2.9,80,0.00,,---,0.00,VWS V14.01,2013-04-17 06:11:00,
2013-04-17 01:12:00,30.7,25.6,29.09,NE,45,3.8,4.5,81,0.00,,---,0.00,VWS V14.01,2013-04-17 06:12:00,
2013-04-17 01:14:00,30.9,25.5,29.09,NE,45,2.7,3.8,80,0.00,,---,0.00,VWS V14.01,2013-04-17 06:14:00,
2013-04-17 01:16:00,30.9,25.2,29.09,ENE,68,2.0,2.0,79,0.00,,---,0.00,VWS V14.01,2013-04-17 06:16:00,
2013-04-17 01:18:00,30.9,25.5,29.09,NNE,22,0.0,1.6,80,0.00,,---,0.00,VWS V14.01,2013-04-17 06:18:00,
2013-04-17 01:22:00,30.9,25.2,29.09,ENE,68,0.0,0.0,79,0.00,,---,0.00,VWS V14.01,2013-04-17 06:22:00,
2013-04-17 01:23:00,30.9,25.2,29.09,ENE,68,1.3,1.3,79,0.00,,---,0.00,VWS V14.01,2013-04-17 06:23:00,
2013-04-17 01:24:00,30.9,25.2,29.09,ENE,68,0.0,1.3,79,0.00,,---,0.00,VWS V14.01,2013-04-17 06:24:00,
2013-04-17 01:26:00,30.9,25.2,29.09,NE,45,0.0,0.0,79,0.00,,---,0.00,VWS V14.01,2013-04-17 06:26:00,
2013-04-17 01:27:00,30.9,25.2,29.09,NNE,22,0.0,0.0,79,0.00,,---,0.00,VWS V14.01,2013-04-17 06:27:00,
2013-04-17 01:28:00,30.9,25.2,29.09,NNE,22,0.0,0.0,79,0.00,,---,0.00,VWS V14.01,2013-04-17 06:28:00,
2013-04-17 01:30:00,30.9,25.2,29.09,North,0,0.0,1.6,79,0.00,,---,0.00,VWS V14.01,2013-04-17 06:30:00,
2013-04-17 01:32:00,30.9,24.9,29.09,ENE,68,0.0,0.0,78,0.00,,---,0.00,VWS V14.01,2013-04-17 06:32:00,
2013-04-17 01:34:00,30.9,24.9,29.09,ENE,68,0.0,2.0,78,0.00,,---,0.00,VWS V14.01,2013-04-17 06:34:00,
2013-04-17 01:36:00,30.9,24.9,29.09,ENE,68,0.0,0.0,78,0.00,,---,0.00,VWS V14.01,2013-04-17 06:36:00,
2013-04-17 01:37:00,31.1,25.0,29.06,East,90,0.0,0.0,78,0.00,,---,0.00,VWS V14.01,2013-04-17 06:37:00,
2013-04-17 01:38:00,31.1,25.1,29.09,East,90,0.0,0.0,78,0.00,,---,0.00,VWS V14.01,2013-04-17 06:38:00,
2013-04-17 01:42:00,31.1,25.0,29.06,West,270,0.0,0.0,78,0.00,,---,0.00,VWS V14.01,2013-04-17 06:42:00,
2013-04-17 01:44:00,31.1,25.1,29.06,WNW,292,0.0,0.0,78,0.00,,---,0.00,VWS V14.01,2013-04-17 06:44:00,
2013-04-17 01:46:00,31.1,25.1,29.06,West,270,0.0,0.0,78,0.00,,---,0.00,VWS V14.01,2013-04-17 06:46:00,
2013-04-17 01:47:00,31.1,25.0,29.06,NNE,22,2.5,2.5,78,0.00,,---,0.00,VWS V14.01,2013-04-17 06:47:00,
2013-04-17 01:48:00,31.1,25.1,29.06,NNE,22,0.0,0.0,78,0.00,,---,0.00,VWS V14.01,2013-04-17 06:48:00,
2013-04-17 01:50:00,31.1,25.1,29.06,North,0,2.5,2.5,78,0.00,,---,0.00,VWS V14.01,2013-04-17 06:50:00,
2013-04-17 01:52:00,31.5,25.4,29.09,ENE,68,4.5,4.5,78,0.00,,---,0.00,VWS V14.01,2013-04-17 06:52:00,
2013-04-17 01:54:00,31.3,25.2,29.06,ENE,68,3.4,3.4,78,0.00,,---,0.00,VWS V14.01,2013-04-17 06:54:00,
2013-04-17 01:56:00,31.5,25.4,29.09,ENE,68,4.7,4.7,78,0.00,,---,0.00,VWS V14.01,2013-04-17 06:56:00,
2013-04-17 01:57:00,31.5,25.7,29.09,ENE,68,3.1,3.1,79,0.00,,---,0.00,VWS V14.01,2013-04-17 06:57:00,
2013-04-17 01:58:00,31.5,25.4,29.09,ENE,68,3.8,4.9,78,0.00,,---,0.00,VWS V14.01,2013-04-17 06:58:00,
2013-04-17 02:00:00,31.5,25.7,29.09,ENE,68,3.1,3.8,79,0.00,,---,0.00,VWS V14.01,2013-04-17 07:00:00,
2013-04-17 02:02:00,31.5,25.7,29.09,NE,45,3.1,3.4,79,0.00,,---,0.00,VWS V14.01,2013-04-17 07:02:00,
2013-04-17 02:04:00,31.5,25.7,29.09,ENE,68,2.5,2.5,79,0.00,,---,0.00,VWS V14.01,2013-04-17 07:04:00,
2013-04-17 02:06:00,31.5,25.7,29.09,ENE,68,3.4,3.4,79,0.00,,---,0.00,VWS V14.01,2013-04-17 07:06:00,
2013-04-17 02:07:00,31.5,25.7,29.09,NE,45,2.7,3.4,79,0.00,,---,0.00,VWS V14.01,2013-04-17 07:07:00,
2013-04-17 02:08:00,31.5,25.7,29.09,ENE,68,3.1,3.4,79,0.00,,---,0.00,VWS V14.01,2013-04-17 07:08:00,
2013-04-17 02:10:00,31.5,25.7,29.09,ENE,68,2.7,3.1,79,0.00,,---,0.00,VWS V14.01,2013-04-17 07:10:00,
2013-04-17 02:12:00,31.5,25.7,29.09,East,90,2.5,2.7,79,0.00,,---,0.00,VWS V14.01,2013-04-17 07:12:00,
2013-04-17 02:14:00,31.5,25.7,29.09,ENE,68,2.7,3.8,79,0.00,,---,0.00,VWS V14.01,2013-04-17 07:14:00,
2013-04-17 02:16:00,31.5,25.7,29.09,ENE,68,2.5,2.7,79,0.00,,---,0.00,VWS V14.01,2013-04-17 07:16:00,
2013-04-17 02:17:00,31.8,26.1,29.09,ENE,68,0.0,0.0,79,0.00,,---,0.00,VWS V14.01,2013-04-17 07:17:00,
2013-04-17 02:18:00,31.6,25.9,29.09,NE,45,0.0,2.5,79,0.00,,---,0.00,VWS V14.01,2013-04-17 07:18:00,
2013-04-17 02:20:00,31.6,25.9,29.09,ENE,68,0.0,0.0,79,0.00,,---,0.00,VWS V14.01,2013-04-17 07:20:00,
2013-04-17 02:22:00,31.8,25.8,29.09,NNE,22,0.0,0.0,78,0.00,,---,0.00,VWS V14.01,2013-04-17 07:22:00,
2013-04-17 02:24:00,31.8,26.1,29.09,ENE,68,0.0,0.0,79,0.00,,---,0.00,VWS V14.01,2013-04-17 07:24:00,
2013-04-17 02:26:00,31.8,25.8,29.09,North,0,0.0,0.0,78,0.00,,---,0.00,VWS V14.01,2013-04-17 07:26:00,
2013-04-17 02:27:00,31.8,25.8,29.09,NNE,22,0.0,0.0,78,0.00,,---,0.00,VWS V14.01,2013-04-17 07:27:00,
2013-04-17 02:28:00,31.8,25.8,29.09,NNE,22,2.9,2.9,78,0.00,,---,0.00,VWS V14.01,2013-04-17 07:28:00,
2013-04-17 02:30:00,31.8,25.8,29.09,NNE,22,0.0,2.9,78,0.00,,---,0.00,VWS V14.01,2013-04-17 07:30:00,
2013-04-17 02:32:00,31.8,25.8,29.09,North,0,0.0,0.0,78,0.00,,---,0.00,VWS V14.01,2013-04-17 07:32:00,
2013-04-17 02:34:00,31.8,25.8,29.09,NNE,22,0.0,0.9,78,0.00,,---,0.00,VWS V14.01,2013-04-17 07:34:00,
2013-04-17 02:36:00,31.8,25.8,29.09,North,0,0.0,0.0,78,0.00,,---,0.00,VWS V14.01,2013-04-17 07:36:00,
2013-04-17 02:37:00,32.0,25.9,29.09,NNE,22,2.5,2.9,78,0.00,,---,0.00,VWS V14.01,2013-04-17 07:37:00,
2013-04-17 02:38:00,32.0,25.9,29.09,NNE,22,2.0,2.0,78,0.00,,---,0.00,VWS V14.01,2013-04-17 07:38:00,
2013-04-17 02:40:00,32.0,25.9,29.09,North,0,2.0,2.0,78,0.00,,---,0.00,VWS V14.01,2013-04-17 07:40:00,
2013-04-17 02:42:00,32.2,26.1,29.09,NE,45,2.0,2.5,78,0.00,,---,0.00,VWS V14.01,2013-04-17 07:42:00,
2013-04-17 02:44:00,32.0,25.9,29.09,NE,45,0.0,0.0,78,0.00,,---,0.00,VWS V14.01,2013-04-17 07:44:00,
2013-04-17 02:46:00,32.2,26.1,29.09,NE,45,1.6,2.5,78,0.00,,---,0.00,VWS V14.01,2013-04-17 07:46:00,
2013-04-17 02:47:00,32.2,26.1,29.09,NE,45,2.0,2.0,78,0.00,,---,0.00,VWS V14.01,2013-04-17 07:47:00,
2013-04-17 02:48:00,32.2,26.1,29.09,ENE,68,2.7,3.1,78,0.00,,---,0.00,VWS V14.01,2013-04-17 07:48:00,
2013-04-17 02:50:00,32.2,26.1,29.09,ENE,68,1.3,3.4,78,0.00,,---,0.00,VWS V14.01,2013-04-17 07:50:00,
2013-04-17 02:52:00,32.2,26.1,29.09,NE,45,2.7,2.7,78,0.00,,---,0.00,VWS V14.01,2013-04-17 07:52:00,
2013-04-17 02:54:00,32.2,26.1,29.09,NE,45,2.5,2.5,78,0.00,,---,0.00,VWS V14.01,2013-04-17 07:54:00,
2013-04-17 02:56:00,32.2,26.1,29.09,NE,45,2.7,2.7,78,0.00,,---,0.00,VWS V14.01,2013-04-17 07:56:00,
2013-04-17 02:57:00,32.4,26.3,29.09,NNE,22,2.0,2.0,78,0.00,,---,0.00,VWS V14.01,2013-04-17 07:57:00,
2013-04-17 02:58:00,32.2,26.1,29.09,NE,45,2.9,3.1,78,0.00,,---,0.00,VWS V14.01,2013-04-17 07:58:00,
2013-04-17 03:00:00,32.2,26.1,29.09,NE,45,1.6,2.9,78,0.00,,---,0.00,VWS V14.01,2013-04-17 08:00:00,
2013-04-17 03:02:00,32.4,26.0,29.09,NNE,22,1.3,2.5,77,0.00,,---,0.00,VWS V14.01,2013-04-17 08:02:00,
2013-04-17 03:04:00,32.4,26.3,29.09,NNE,22,2.0,2.5,78,0.00,,---,0.00,VWS V14.01,2013-04-17 08:04:00,
2013-04-17 03:06:00,32.4,26.0,29.09,NNE,22,1.3,2.5,77,0.00,,---,0.00,VWS V14.01,2013-04-17 08:06:00,
2013-04-17 03:07:00,32.4,26.0,29.09,NE,45,2.9,2.9,77,0.00,,---,0.00,VWS V14.01,2013-04-17 08:07:00,
2013-04-17 03:08:00,32.4,26.0,29.09,NE,45,2.7,2.7,77,0.00,,---,0.00,VWS V14.01,2013-04-17 08:08:00,
2013-04-17 03:10:00,32.4,26.0,29.09,NE,45,2.5,2.7,77,0.00,,---,0.00,VWS V14.01,2013-04-17 08:10:00,
2013-04-17 03:12:00,32.4,26.0,29.09,ENE,68,3.1,3.4,77,0.00,,---,0.00,VWS V14.01,2013-04-17 08:12:00,
2013-04-17 03:14:00,32.4,26.0,29.09,ENE,68,3.1,3.6,77,0.00,,---,0.00,VWS V14.01,2013-04-17 08:14:00,
2013-04-17 03:16:00,32.4,26.0,29.09,ENE,68,3.1,3.4,77,0.00,,---,0.00,VWS V14.01,2013-04-17 08:16:00,
2013-04-17 03:17:00,32.4,26.0,29.09,ENE,68,3.1,3.1,77,0.00,,---,0.00,VWS V14.01,2013-04-17 08:17:00,
2013-04-17 03:18:00,32.4,26.0,29.09,East,90,2.5,3.1,77,0.00,,---,0.00,VWS V14.01,2013-04-17 08:18:00,
2013-04-17 03:20:00,32.4,26.0,29.09,ENE,68,3.1,3.1,77,0.00,,---,0.00,VWS V14.01,2013-04-17 08:20:00,
2013-04-17 03:22:00,32.4,26.0,29.09,ENE,68,3.4,3.6,77,0.00,,---,0.00,VWS V14.01,2013-04-17 08:22:00,
2013-04-17 03:24:00,32.4,26.0,29.09,ENE,68,3.6,3.8,77,0.00,,---,0.00,VWS V14.01,2013-04-17 08:24:00,
2013-04-17 03:26:00,32.4,26.3,29.09,ENE,68,3.4,3.6,78,0.00,,---,0.00,VWS V14.01,2013-04-17 08:26:00,
2013-04-17 03:27:00,32.4,26.3,29.09,ENE,68,4.3,4.5,78,0.00,,---,0.00,VWS V14.01,2013-04-17 08:27:00,
2013-04-17 03:28:00,32.4,26.3,29.09,ENE,68,3.4,3.8,78,0.00,,---,0.00,VWS V14.01,2013-04-17 08:28:00,
2013-04-17 03:30:00,32.4,26.3,29.09,ENE,68,3.8,3.8,78,0.00,,---,0.00,VWS V14.01,2013-04-17 08:30:00,
2013-04-17 03:32:00,32.4,26.3,29.09,ENE,68,4.0,4.5,78,0.00,,---,0.00,VWS V14.01,2013-04-17 08:32:00,
2013-04-17 03:33:00,32.4,26.6,29.09,ENE,68,3.6,4.3,79,0.00,,---,0.00,VWS V14.01,2013-04-17 08:33:00,
2013-04-17 03:34:00,32.4,26.3,29.09,ENE,68,4.3,4.3,78,0.00,,---,0.00,VWS V14.01,2013-04-17 08:34:00,
2013-04-17 03:36:00,32.4,26.6,29.09,ENE,68,3.6,4.3,79,0.00,,---,0.00,VWS V14.01,2013-04-17 08:36:00,
2013-04-17 03:38:00,32.4,26.6,29.09,ENE,68,4.3,4.3,79,0.00,,---,0.00,VWS V14.01,2013-04-17 08:38:00,
2013-04-17 03:40:00,32.4,26.6,29.09,ENE,68,3.6,3.6,79,0.00,,---,0.00,VWS V14.01,2013-04-17 08:40:00,
2013-04-17 03:42:00,32.4,26.6,29.09,ENE,68,4.9,5.6,79,0.00,,---,0.00,VWS V14.01,2013-04-17 08:42:00,
2013-04-17 03:43:00,32.4,26.6,29.09,ENE,68,6.0,6.5,79,0.00,,---,0.00,VWS V14.01,2013-04-17 08:43:00,
2013-04-17 03:44:00,32.4,26.6,29.09,ENE,68,4.9,6.7,79,0.00,,---,0.00,VWS V14.01,2013-04-17 08:44:00,
2013-04-17 03:46:00,32.4,26.6,29.09,ENE,68,6.0,6.5,79,0.00,,---,0.00,VWS V14.01,2013-04-17 08:46:00,
2013-04-17 03:48:00,32.5,26.8,29.09,NE,45,4.7,6.0,79,0.00,,---,0.00,VWS V14.01,2013-04-17 08:48:00,
2013-04-17 03:50:00,32.5,26.8,29.09,ENE,68,6.0,7.8,79,0.00,,---,0.00,VWS V14.01,2013-04-17 08:50:00,
2013-04-17 03:52:00,32.5,26.8,29.09,ENE,68,4.7,6.0,79,0.00,,---,0.00,VWS V14.01,2013-04-17 08:52:00,
2013-04-17 03:53:00,32.5,26.8,29.06,ENE,68,6.0,6.0,79,0.00,,---,0.00,VWS V14.01,2013-04-17 08:53:00,
2013-04-17 03:54:00,32.5,26.8,29.09,NE,45,5.8,5.8,79,0.00,,---,0.00,VWS V14.01,2013-04-17 08:54:00,
2013-04-17 03:56:00,32.5,26.8,29.06,ENE,68,6.0,6.5,79,0.00,,---,0.00,VWS V14.01,2013-04-17 08:56:00,
2013-04-17 03:58:00,32.5,26.5,29.06,ENE,68,6.3,6.3,78,0.00,,---,0.00,VWS V14.01,2013-04-17 08:58:00,
2013-04-17 04:00:00,32.5,26.5,29.06,ENE,68,5.6,6.5,78,0.00,,---,0.00,VWS V14.01,2013-04-17 09:00:00,
2013-04-17 04:02:00,32.5,26.8,29.06,ENE,68,6.5,6.5,79,0.00,,---,0.00,VWS V14.01,2013-04-17 09:02:00,
2013-04-17 04:03:00,32.7,26.6,29.06,ENE,68,4.0,4.0,78,0.00,,---,0.00,VWS V14.01,2013-04-17 09:03:00,
2013-04-17 04:04:00,32.5,26.5,29.06,ENE,68,4.9,7.4,78,0.00,,---,0.00,VWS V14.01,2013-04-17 09:04:00,
2013-04-17 04:06:00,32.7,26.6,29.06,ENE,68,4.0,5.6,78,0.00,,---,0.00,VWS V14.01,2013-04-17 09:06:00,
2013-04-17 04:08:00,32.7,26.6,29.06,ENE,68,3.8,3.8,78,0.00,,---,0.00,VWS V14.01,2013-04-17 09:08:00,
2013-04-17 04:10:00,32.7,26.6,29.06,ENE,68,3.8,4.0,78,0.00,,---,0.00,VWS V14.01,2013-04-17 09:10:00,
2013-04-17 04:12:00,32.7,26.6,29.06,ENE,68,4.0,4.0,78,0.00,,---,0.00,VWS V14.01,2013-04-17 09:12:00,
2013-04-17 04:13:00,32.7,26.6,29.06,ENE,68,2.5,2.5,78,0.00,,---,0.00,VWS V14.01,2013-04-17 09:13:00,
2013-04-17 04:14:00,32.7,26.6,29.06,NE,45,1.6,4.0,78,0.00,,---,0.00,VWS V14.01,2013-04-17 09:14:00,
2013-04-17 04:16:00,32.7,26.6,29.06,ENE,68,2.0,2.9,78,0.00,,---,0.00,VWS V14.01,2013-04-17 09:16:00,
2013-04-17 04:18:00,32.7,26.6,29.06,ENE,68,2.0,4.0,78,0.00,,---,0.00,VWS V14.01,2013-04-17 09:18:00,
2013-04-17 04:20:00,32.7,26.6,29.06,ENE,68,4.0,4.0,78,0.00,,---,0.00,VWS V14.01,2013-04-17 09:20:00,
2013-04-17 04:22:00,32.7,26.6,29.06,ENE,68,2.5,4.0,78,0.00,,---,0.00,VWS V14.01,2013-04-17 09:22:00,
2013-04-17 04:23:00,32.7,26.6,29.09,NE,45,0.0,0.0,78,0.00,,---,0.00,VWS V14.01,2013-04-17 09:23:00,
2013-04-17 04:24:00,32.7,26.6,29.09,NE,45,0.0,2.9,78,0.00,,---,0.00,VWS V14.01,2013-04-17 09:24:00,
2013-04-17 04:26:00,32.7,26.6,29.09,NE,45,0.0,1.3,78,0.00,,---,0.00,VWS V14.01,2013-04-17 09:26:00,
2013-04-17 04:28:00,32.7,26.6,29.09,ENE,68,6.0,6.0,78,0.00,,---,0.00,VWS V14.01,2013-04-17 09:28:00,
2013-04-17 04:30:00,32.7,26.6,29.09,ENE,68,4.3,4.3,78,0.00,,---,0.00,VWS V14.01,2013-04-17 09:30:00,
2013-04-17 04:32:00,32.7,26.3,29.09,ENE,68,6.5,6.5,77,0.00,,---,0.00,VWS V14.01,2013-04-17 09:32:00,
2013-04-17 04:33:00,32.7,26.6,29.09,NE,45,7.4,7.8,78,0.00,,---,0.00,VWS V14.01,2013-04-17 09:33:00,
2013-04-17 04:34:00,32.7,26.6,29.09,NE,45,7.6,7.6,78,0.00,,---,0.00,VWS V14.01,2013-04-17 09:34:00,
2013-04-17 04:36:00,32.7,26.6,29.09,NE,45,7.8,9.0,78,0.00,,---,0.00,VWS V14.01,2013-04-17 09:36:00,
2013-04-17 04:38:00,32.7,26.6,29.06,ENE,68,7.6,8.7,78,0.00,,---,0.00,VWS V14.01,2013-04-17 09:38:00,
2013-04-17 04:40:00,32.7,26.6,29.09,ENE,68,7.6,8.5,78,0.00,,---,0.00,VWS V14.01,2013-04-17 09:40:00,
2013-04-17 04:42:00,32.7,26.6,29.06,ENE,68,7.4,8.7,78,0.00,,---,0.00,VWS V14.01,2013-04-17 09:42:00,
2013-04-17 04:43:00,32.7,26.6,29.06,ENE,68,7.8,7.8,78,0.00,,---,0.00,VWS V14.01,2013-04-17 09:43:00,
2013-04-17 04:44:00,32.7,26.6,29.06,ENE,68,6.3,8.1,78,0.00,,---,0.00,VWS V14.01,2013-04-17 09:44:00,
2013-04-17 04:46:00,32.7,26.6,29.06,ENE,68,7.8,8.5,78,0.00,,---,0.00,VWS V14.01,2013-04-17 09:46:00,
2013-04-17 04:48:00,32.9,26.8,29.06,ENE,68,5.4,6.0,78,0.00,,---,0.00,VWS V14.01,2013-04-17 09:48:00,
2013-04-17 04:50:00,32.9,26.8,29.06,ENE,68,4.9,6.5,78,0.00,,---,0.00,VWS V14.01,2013-04-17 09:50:00,
2013-04-17 04:52:00,32.9,26.8,29.06,ENE,68,4.3,6.0,78,0.00,,---,0.00,VWS V14.01,2013-04-17 09:52:00,
2013-04-17 04:53:00,32.9,26.8,29.03,ENE,68,4.7,4.7,78,0.00,,---,0.00,VWS V14.01,2013-04-17 09:53:00,
2013-04-17 04:54:00,32.9,26.8,29.06,ENE,68,5.8,5.8,78,0.00,,---,0.00,VWS V14.01,2013-04-17 09:54:00,
2013-04-17 04:56:00,32.9,26.8,29.03,ENE,68,4.3,5.8,78,0.00,,---,0.00,VWS V14.01,2013-04-17 09:56:00,
2013-04-17 04:58:00,32.9,26.8,29.03,ENE,68,5.8,6.0,78,0.00,,---,0.00,VWS V14.01,2013-04-17 09:58:00,
2013-04-17 05:00:00,32.9,26.8,29.03,ENE,68,5.4,6.0,78,0.00,,---,0.00,VWS V14.01,2013-04-17 10:00:00,
2013-04-17 05:02:00,32.9,26.8,29.03,ENE,68,6.0,6.0,78,0.00,,---,0.00,VWS V14.01,2013-04-17 10:02:00,
2013-04-17 05:03:00,32.9,26.8,29.03,NE,45,4.9,4.9,78,0.00,,---,0.00,VWS V14.01,2013-04-17 10:03:00,
2013-04-17 05:04:00,32.9,26.8,29.03,ENE,68,4.3,6.0,78,0.00,,---,0.00,VWS V14.01,2013-04-17 10:04:00,
2013-04-17 05:06:00,32.9,26.8,29.03,NE,45,4.9,5.8,78,0.00,,---,0.00,VWS V14.01,2013-04-17 10:06:00,
2013-04-17 05:08:00,32.9,26.8,29.03,ENE,68,7.8,8.1,78,0.00,,---,0.00,VWS V14.01,2013-04-17 10:08:00,
2013-04-17 05:10:00,32.9,26.8,29.03,ENE,68,6.3,6.5,78,0.00,,---,0.00,VWS V14.01,2013-04-17 10:10:00,
2013-04-17 05:12:00,32.9,26.8,29.03,ENE,68,8.5,8.5,78,0.00,,---,0.00,VWS V14.01,2013-04-17 10:12:00,
2013-04-17 05:13:00,32.9,26.8,29.03,ENE,68,10.1,10.1,78,0.00,,---,0.00,VWS V14.01,2013-04-17 10:13:00,
2013-04-17 05:14:00,32.9,26.8,29.03,ENE,68,9.0,9.0,78,0.00,,---,0.00,VWS V14.01,2013-04-17 10:14:00,
2013-04-17 05:16:00,32.9,26.8,29.03,ENE,68,9.6,9.6,78,0.00,,---,0.00,VWS V14.01,2013-04-17 10:16:00,
2013-04-17 05:18:00,33.1,26.7,29.03,ENE,68,9.8,9.8,77,0.00,,---,0.00,VWS V14.01,2013-04-17 10:18:00,
2013-04-17 05:20:00,33.1,26.7,29.03,ENE,68,8.7,10.5,77,0.00,,---,0.00,VWS V14.01,2013-04-17 10:20:00,
2013-04-17 05:22:00,33.1,26.7,29.03,ENE,68,9.8,10.5,77,0.00,,---,0.00,VWS V14.01,2013-04-17 10:22:00,
2013-04-17 05:23:00,33.1,27.0,29.03,ENE,68,8.1,9.4,78,0.00,,---,0.00,VWS V14.01,2013-04-17 10:23:00,
2013-04-17 05:24:00,33.1,26.7,29.03,ENE,68,7.6,10.1,77,0.00,,---,0.00,VWS V14.01,2013-04-17 10:24:00,
2013-04-17 05:26:00,33.1,27.0,29.03,ENE,68,7.6,10.1,78,0.00,,---,0.00,VWS V14.01,2013-04-17 10:26:00,
2013-04-17 05:28:00,33.1,26.7,29.03,NE,45,6.5,9.2,77,0.00,,---,0.00,VWS V14.01,2013-04-17 10:28:00,
2013-04-17 05:30:00,33.1,26.7,29.03,ENE,68,7.6,8.7,77,0.00,,---,0.00,VWS V14.01,2013-04-17 10:30:00,
2013-04-17 05:32:00,33.1,26.7,29.03,NE,45,7.8,9.2,77,0.00,,---,0.00,VWS V14.01,2013-04-17 10:32:00,
2013-04-17 05:33:00,33.1,26.7,29.03,ENE,68,7.6,8.7,77,0.00,,---,0.00,VWS V14.01,2013-04-17 10:33:00,
2013-04-17 05:34:00,33.1,26.7,29.03,ENE,68,10.1,10.1,77,0.00,,---,0.00,VWS V14.01,2013-04-17 10:34:00,
2013-04-17 05:36:00,33.1,26.7,29.03,ENE,68,8.5,10.1,77,0.00,,---,0.00,VWS V14.01,2013-04-17 10:36:00,
2013-04-17 05:38:00,33.3,26.5,29.03,NE,45,6.0,8.7,76,0.00,,---,0.00,VWS V14.01,2013-04-17 10:38:00,
2013-04-17 05:40:00,33.3,26.5,29.03,ENE,68,5.6,7.8,76,0.00,,---,0.00,VWS V14.01,2013-04-17 10:40:00,
2013-04-17 05:42:00,33.3,26.5,29.03,ENE,68,6.0,8.7,76,0.00,,---,0.00,VWS V14.01,2013-04-17 10:42:00,
2013-04-17 05:43:00,33.3,26.5,29.03,ENE,68,8.5,8.5,76,0.00,,---,0.00,VWS V14.01,2013-04-17 10:43:00,
2013-04-17 05:44:00,33.3,26.5,29.03,NE,45,6.5,9.4,76,0.00,,---,0.00,VWS V14.01,2013-04-17 10:44:00,
2013-04-17 05:46:00,33.3,26.5,29.03,ENE,68,6.0,8.1,76,0.00,,---,0.00,VWS V14.01,2013-04-17 10:46:00,
2013-04-17 05:48:00,33.3,26.5,29.03,ENE,68,6.5,8.7,76,0.00,,---,0.00,VWS V14.01,2013-04-17 10:48:00,
2013-04-17 05:50:00,33.3,26.5,29.03,NE,45,7.4,10.1,76,0.00,,---,0.00,VWS V14.01,2013-04-17 10:50:00,
2013-04-17 05:52:00,33.3,26.5,29.03,NE,45,5.8,8.7,76,0.00,,---,0.00,VWS V14.01,2013-04-17 10:52:00,
2013-04-17 05:53:00,33.3,26.5,29.03,ENE,68,6.3,7.2,76,0.00,,---,0.00,VWS V14.01,2013-04-17 10:53:00,
2013-04-17 05:54:00,33.3,26.5,29.03,NE,45,4.9,6.5,76,0.00,,---,0.00,VWS V14.01,2013-04-17 10:54:00,
2013-04-17 05:56:00,33.3,26.5,29.03,NE,45,7.2,8.5,76,0.00,,---,0.00,VWS V14.01,2013-04-17 10:56:00,
2013-04-17 05:58:00,33.3,26.5,29.03,ENE,68,8.1,10.1,76,0.00,,---,0.00,VWS V14.01,2013-04-17 10:58:00,
2013-04-17 06:00:00,33.3,26.5,29.03,ENE,68,6.0,7.2,76,0.00,,---,0.00,VWS V14.01,2013-04-17 11:00:00,
2013-04-17 06:02:00,33.3,26.5,29.03,ENE,68,7.6,10.1,76,0.00,,---,0.00,VWS V14.01,2013-04-17 11:02:00,
2013-04-17 06:03:00,33.3,26.5,29.03,ENE,68,8.1,8.7,76,0.00,,---,0.00,VWS V14.01,2013-04-17 11:03:00,
2013-04-17 06:04:00,33.3,26.5,29.03,ENE,68,8.5,9.2,76,0.00,,---,0.00,VWS V14.01,2013-04-17 11:04:00,
2013-04-17 06:06:00,33.3,26.5,29.03,ENE,68,8.7,9.8,76,0.00,,---,0.00,VWS V14.01,2013-04-17 11:06:00,
2013-04-17 06:08:00,33.3,26.5,29.00,ENE,68,10.3,11.0,76,0.00,,---,0.00,VWS V14.01,2013-04-17 11:08:00,
2013-04-17 06:10:00,33.3,26.5,29.00,East,90,9.8,10.7,76,0.00,,---,0.00,VWS V14.01,2013-04-17 11:10:00,
2013-04-17 06:12:00,33.3,26.5,29.00,ENE,68,12.3,12.3,76,0.00,,---,0.00,VWS V14.01,2013-04-17 11:12:00,
2013-04-17 06:13:00,33.3,26.8,29.00,ENE,68,9.6,9.8,77,0.00,,---,0.00,VWS V14.01,2013-04-17 11:13:00,
2013-04-17 06:14:00,33.3,26.8,29.00,ENE,68,12.5,12.5,77,0.00,,---,0.00,VWS V14.01,2013-04-17 11:14:00,
2013-04-17 06:16:00,33.3,26.8,29.00,ENE,68,9.8,12.5,77,0.00,,---,0.00,VWS V14.01,2013-04-17 11:16:00,
2013-04-17 06:18:00,33.3,26.8,29.00,ENE,68,12.8,13.2,77,0.00,,---,0.00,VWS V14.01,2013-04-17 11:18:00,
2013-04-17 06:20:00,33.3,26.8,29.00,ENE,68,10.3,10.7,77,0.00,,---,0.00,VWS V14.01,2013-04-17 11:20:00,
2013-04-17 06:22:00,33.3,26.8,29.00,ENE,68,12.8,13.2,77,0.00,,---,0.00,VWS V14.01,2013-04-17 11:22:00,
2013-04-17 06:23:00,33.3,26.8,29.00,ENE,68,10.1,10.3,77,0.00,,---,0.00,VWS V14.01,2013-04-17 11:23:00,
2013-04-17 06:24:00,33.3,26.8,29.00,ENE,68,10.3,12.8,77,0.00,,---,0.00,VWS V14.01,2013-04-17 11:24:00,
2013-04-17 06:26:00,33.3,26.8,29.00,ENE,68,10.3,11.0,77,0.00,,---,0.00,VWS V14.01,2013-04-17 11:26:00,
2013-04-17 06:28:00,33.3,26.8,29.00,ENE,68,10.3,12.3,77,0.00,,---,0.00,VWS V14.01,2013-04-17 11:28:00,
2013-04-17 06:30:00,33.3,26.8,29.00,ENE,68,10.3,10.7,77,0.00,,---,0.00,VWS V14.01,2013-04-17 11:30:00,
2013-04-17 06:32:00,33.3,26.8,29.00,ENE,68,10.3,12.3,77,0.00,,---,0.00,VWS V14.01,2013-04-17 11:32:00,
2013-04-17 06:33:00,33.3,26.8,29.00,ENE,68,10.1,10.3,77,0.00,,---,0.00,VWS V14.01,2013-04-17 11:33:00,
2013-04-17 06:34:00,33.3,26.8,29.00,ENE,68,12.5,12.5,77,0.00,,---,0.00,VWS V14.01,2013-04-17 11:34:00,
2013-04-17 06:36:00,33.3,26.8,29.00,ENE,68,10.1,13.2,77,0.00,,---,0.00,VWS V14.01,2013-04-17 11:36:00,
2013-04-17 06:38:00,33.3,26.8,29.00,East,90,10.3,10.3,77,0.00,,---,0.00,VWS V14.01,2013-04-17 11:38:00,
2013-04-17 06:39:00,33.1,27.0,29.00,East,90,7.8,10.3,78,0.00,,---,0.00,VWS V14.01,2013-04-17 11:39:00,
2013-04-17 06:40:00,33.1,26.7,29.00,ENE,68,7.8,10.3,77,0.00,,---,0.00,VWS V14.01,2013-04-17 11:40:00,
2013-04-17 06:42:00,33.1,27.0,29.00,East,90,7.8,10.3,78,0.00,,---,0.00,VWS V14.01,2013-04-17 11:42:00,
2013-04-17 06:44:00,33.1,27.0,29.00,East,90,6.3,11.0,78,0.00,,---,0.00,VWS V14.01,2013-04-17 11:44:00,
2013-04-17 06:48:00,33.1,27.0,29.00,East,90,7.8,11.0,78,0.00,,---,0.00,VWS V14.01,2013-04-17 11:48:00,
2013-04-17 06:49:00,33.1,27.0,29.00,East,90,4.9,4.9,78,0.00,,---,0.00,VWS V14.01,2013-04-17 11:49:00,
2013-04-17 06:50:00,33.1,27.0,29.00,East,90,5.8,7.8,78,0.00,,---,0.00,VWS V14.01,2013-04-17 11:50:00,
2013-04-17 06:52:00,33.1,27.0,29.00,East,90,4.9,6.3,78,0.00,,---,0.00,VWS V14.01,2013-04-17 11:52:00,
2013-04-17 06:54:00,33.1,27.0,29.03,East,90,4.9,5.6,78,0.00,,---,0.00,VWS V14.01,2013-04-17 11:54:00,
2013-04-17 06:56:00,33.1,27.0,29.03,East,90,5.4,6.0,78,0.00,,---,0.00,VWS V14.01,2013-04-17 11:56:00,
2013-04-17 06:58:00,33.1,27.0,29.03,East,90,5.4,5.6,78,0.00,,---,0.00,VWS V14.01,2013-04-17 11:58:00,
2013-04-17 06:59:00,33.1,27.3,29.03,ENE,68,5.8,5.8,79,0.00,,---,0.00,VWS V14.01,2013-04-17 11:59:00,
2013-04-17 07:00:00,33.1,27.0,29.03,East,90,5.4,5.8,78,0.00,,---,0.00,VWS V14.01,2013-04-17 12:00:00,
2013-04-17 07:02:00,33.1,27.3,29.03,ENE,68,5.8,5.8,79,0.00,,---,0.00,VWS V14.01,2013-04-17 12:02:00,
2013-04-17 07:04:00,33.1,27.0,29.03,ENE,68,6.5,8.1,78,0.00,,---,0.00,VWS V14.01,2013-04-17 12:04:00,
2013-04-17 07:06:00,33.1,27.3,29.03,ENE,68,6.3,8.1,79,0.00,,---,0.00,VWS V14.01,2013-04-17 12:06:00,
2013-04-17 07:08:00,33.1,27.0,29.03,ESE,112,5.6,8.1,78,0.00,,---,0.00,VWS V14.01,2013-04-17 12:08:00,
2013-04-17 07:09:00,33.1,27.3,29.00,East,90,5.8,5.8,79,0.00,,---,0.00,VWS V14.01,2013-04-17 12:09:00,
2013-04-17 07:10:00,33.1,27.3,29.00,ENE,68,5.8,7.2,79,0.00,,---,0.00,VWS V14.01,2013-04-17 12:10:00,
2013-04-17 07:12:00,33.1,27.3,29.00,East,90,5.8,6.3,79,0.00,,---,0.00,VWS V14.01,2013-04-17 12:12:00,
2013-04-17 07:14:00,33.1,27.3,29.00,ESE,112,2.7,3.8,79,0.00,,---,0.00,VWS V14.01,2013-04-17 12:14:00,
2013-04-17 07:16:00,33.1,27.3,29.00,ESE,112,3.8,5.6,79,0.00,,---,0.00,VWS V14.01,2013-04-17 12:16:00,
2013-04-17 07:18:00,33.1,27.0,29.00,ESE,112,1.6,3.8,78,0.00,,---,0.00,VWS V14.01,2013-04-17 12:18:00,
2013-04-17 07:19:00,33.1,27.0,29.00,SW,225,0.0,0.0,78,0.00,,---,0.00,VWS V14.01,2013-04-17 12:19:00,
2013-04-17 07:20:00,33.1,27.0,29.00,SE,135,0.0,1.6,78,0.00,,---,0.00,VWS V14.01,2013-04-17 12:20:00,
2013-04-17 07:22:00,33.1,27.0,29.00,SW,225,0.0,1.6,78,0.00,,---,0.00,VWS V14.01,2013-04-17 12:22:00,
2013-04-17 07:24:00,33.1,27.3,29.06,SW,225,0.0,0.0,79,0.00,,---,0.00,VWS V14.01,2013-04-17 12:24:00,
2013-04-17 07:26:00,33.1,27.3,29.06,SW,225,0.0,0.0,79,0.00,,---,0.00,VWS V14.01,2013-04-17 12:26:00,
2013-04-17 07:28:00,33.1,27.3,29.06,SW,225,0.0,0.0,79,0.00,,---,0.00,VWS V14.01,2013-04-17 12:28:00,
2013-04-17 07:29:00,33.3,27.1,29.06,SE,135,0.0,0.0,78,0.00,,---,0.00,VWS V14.01,2013-04-17 12:29:00,
2013-04-17 07:30:00,33.1,27.3,29.06,SW,225,0.0,0.0,79,0.00,,---,0.00,VWS V14.01,2013-04-17 12:30:00,
2013-04-17 07:32:00,33.3,27.2,29.06,SE,135,0.0,0.0,78,0.00,,---,0.00,VWS V14.01,2013-04-17 12:32:00,
2013-04-17 07:34:00,33.4,27.3,29.06,ENE,68,0.0,0.0,78,0.00,,---,0.00,VWS V14.01,2013-04-17 12:34:00,
2013-04-17 07:36:00,33.3,27.2,29.06,ENE,68,0.0,0.0,78,0.00,,---,0.00,VWS V14.01,2013-04-17 12:36:00,
2013-04-17 07:38:00,33.4,27.3,29.06,ENE,68,0.0,0.0,78,0.00,,---,0.00,VWS V14.01,2013-04-17 12:38:00,
2013-04-17 07:39:00,33.8,27.7,29.06,ENE,68,2.5,2.5,78,0.00,,---,0.00,VWS V14.01,2013-04-17 12:39:00,
2013-04-17 07:40:00,33.6,27.5,29.06,ENE,68,0.0,0.0,78,0.00,,---,0.00,VWS V14.01,2013-04-17 12:40:00,
2013-04-17 07:42:00,33.8,27.7,29.06,ENE,68,2.5,2.5,78,0.00,,---,0.00,VWS V14.01,2013-04-17 12:42:00,
2013-04-17 07:44:00,34.0,27.5,29.06,ENE,68,3.8,4.3,77,0.00,,---,0.00,VWS V14.01,2013-04-17 12:44:00,
2013-04-17 07:46:00,33.8,27.7,29.06,ENE,68,3.6,4.3,78,0.00,,---,0.00,VWS V14.01,2013-04-17 12:46:00,
2013-04-17 07:48:00,34.0,27.5,29.06,ENE,68,4.0,4.3,77,0.00,,---,0.00,VWS V14.01,2013-04-17 12:48:00,
2013-04-17 07:49:00,34.2,27.4,29.06,ENE,68,4.0,4.0,76,0.00,,---,0.00,VWS V14.01,2013-04-17 12:49:00,
2013-04-17 07:50:00,34.0,27.2,29.06,ENE,68,3.4,4.3,76,0.00,,---,0.00,VWS V14.01,2013-04-17 12:50:00,
2013-04-17 07:52:00,34.2,27.4,29.06,ENE,68,3.8,3.8,76,0.00,,---,0.00,VWS V14.01,2013-04-17 12:52:00,
2013-04-17 07:54:00,34.3,27.2,29.03,NNE,22,2.5,2.9,75,0.00,,---,0.00,VWS V14.01,2013-04-17 12:54:00,
2013-04-17 07:56:00,34.3,27.2,29.03,NNE,22,2.5,3.6,75,0.00,,---,0.00,VWS V14.01,2013-04-17 12:56:00,
2013-04-17 07:58:00,34.3,27.2,29.03,NE,45,2.9,2.9,75,0.00,,---,0.00,VWS V14.01,2013-04-17 12:58:00,
2013-04-17 07:59:00,34.7,27.6,29.03,NE,45,3.6,3.6,75,0.00,,---,0.00,VWS V14.01,2013-04-17 12:59:00,
2013-04-17 08:00:00,34.5,27.4,29.03,NE,45,3.1,3.1,75,0.00,,---,0.00,VWS V14.01,2013-04-17 13:00:00,
2013-04-17 08:02:00,34.7,27.6,29.03,NE,45,3.1,3.1,75,0.00,,---,0.00,VWS V14.01,2013-04-17 13:02:00,
2013-04-17 08:04:00,34.9,27.1,29.03,ENE,68,5.4,6.5,73,0.00,,---,0.00,VWS V14.01,2013-04-17 13:04:00,
2013-04-17 08:06:00,34.9,27.8,29.03,NE,45,6.5,6.5,75,0.00,,---,0.00,VWS V14.01,2013-04-17 13:06:00,
2013-04-17 08:08:00,34.9,27.1,29.03,NE,45,4.5,6.5,73,0.00,,---,0.00,VWS V14.01,2013-04-17 13:08:00,
2013-04-17 08:09:00,34.9,27.1,29.03,ENE,68,4.9,4.9,73,0.00,,---,0.00,VWS V14.01,2013-04-17 13:09:00,
2013-04-17 08:10:00,34.9,27.1,29.03,ENE,68,5.4,5.6,73,0.00,,---,0.00,VWS V14.01,2013-04-17 13:10:00,
2013-04-17 08:12:00,34.9,27.1,29.03,ENE,68,4.9,5.6,73,0.00,,---,0.00,VWS V14.01,2013-04-17 13:12:00,
2013-04-17 08:14:00,35.1,27.3,29.03,ENE,68,6.5,6.5,73,0.00,,---,0.00,VWS V14.01,2013-04-17 13:14:00,
2013-04-17 08:16:00,35.1,27.3,29.03,ENE,68,6.5,6.9,73,0.00,,---,0.00,VWS V14.01,2013-04-17 13:16:00,
2013-04-17 08:18:00,35.1,27.3,29.03,ENE,68,7.8,7.8,73,0.00,,---,0.00,VWS V14.01,2013-04-17 13:18:00,
2013-04-17 08:19:00,35.1,27.0,29.03,ENE,68,7.2,7.2,72,0.00,,---,0.00,VWS V14.01,2013-04-17 13:19:00,
2013-04-17 08:20:00,35.1,27.0,29.03,ENE,68,7.4,7.8,72,0.00,,---,0.00,VWS V14.01,2013-04-17 13:20:00,
2013-04-17 08:22:00,35.1,27.0,29.03,ENE,68,7.2,7.6,72,0.00,,---,0.00,VWS V14.01,2013-04-17 13:22:00,
2013-04-17 08:24:00,35.1,27.0,29.00,ENE,68,6.0,7.4,72,0.00,,---,0.00,VWS V14.01,2013-04-17 13:24:00,
2013-04-17 08:26:00,35.1,27.0,29.00,NE,45,7.4,8.5,72,0.00,,---,0.00,VWS V14.01,2013-04-17 13:26:00,
2013-04-17 08:29:00,35.1,27.3,29.00,ENE,68,5.8,6.5,73,0.00,,---,0.00,VWS V14.01,2013-04-17 13:29:00,
2013-04-17 08:30:00,35.1,27.3,29.00,ENE,68,5.4,7.4,73,0.00,,---,0.00,VWS V14.01,2013-04-17 13:30:00,
2013-04-17 08:32:00,35.1,27.3,29.00,NNE,22,6.5,6.5,73,0.00,,---,0.00,VWS V14.01,2013-04-17 13:32:00,
2013-04-17 08:34:00,34.9,27.1,29.00,ENE,68,8.7,8.7,73,0.00,,---,0.00,VWS V14.01,2013-04-17 13:34:00,
2013-04-17 08:36:00,34.9,27.1,29.00,East,90,8.7,10.3,73,0.00,,---,0.00,VWS V14.01,2013-04-17 13:36:00,
2013-04-17 08:38:00,34.9,27.1,29.00,East,90,8.1,8.7,73,0.00,,---,0.00,VWS V14.01,2013-04-17 13:38:00,
2013-04-17 08:39:00,34.7,27.0,29.03,ENE,68,7.4,9.0,73,0.00,,---,0.00,VWS V14.01,2013-04-17 13:39:00,
2013-04-17 08:40:00,34.9,26.8,29.03,East,90,7.6,8.1,72,0.00,,---,0.00,VWS V14.01,2013-04-17 13:40:00,
2013-04-17 08:42:00,34.9,27.1,29.03,ENE,68,9.0,9.0,73,0.00,,---,0.00,VWS V14.01,2013-04-17 13:42:00,
2013-04-17 08:44:00,34.7,27.3,29.03,ENE,68,7.8,8.5,74,0.00,,---,0.00,VWS V14.01,2013-04-17 13:44:00,
2013-04-17 08:46:00,34.7,27.3,29.03,East,90,8.5,8.5,74,0.00,,---,0.00,VWS V14.01,2013-04-17 13:46:00,
2013-04-17 08:48:00,34.5,27.1,29.03,ENE,68,5.8,8.5,74,0.00,,---,0.00,VWS V14.01,2013-04-17 13:48:00,
2013-04-17 08:49:00,34.5,27.4,29.03,East,90,5.8,6.5,75,0.00,,---,0.00,VWS V14.01,2013-04-17 13:49:00,
2013-04-17 08:50:00,34.5,27.1,29.03,East,90,5.4,7.4,74,0.00,,---,0.00,VWS V14.01,2013-04-17 13:50:00,
2013-04-17 08:52:00,34.5,27.4,29.03,East,90,4.9,6.5,75,0.00,,---,0.00,VWS V14.01,2013-04-17 13:52:00,
2013-04-17 08:54:00,34.5,27.4,29.06,East,90,7.4,7.4,75,0.00,,---,0.00,VWS V14.01,2013-04-17 13:54:00,
2013-04-17 08:56:00,34.5,27.4,29.06,East,90,5.4,6.0,75,0.00,,---,0.00,VWS V14.01,2013-04-17 13:56:00,
2013-04-17 08:58:00,34.5,27.4,29.06,East,90,6.5,7.4,75,0.00,,---,0.00,VWS V14.01,2013-04-17 13:58:00,
2013-04-17 08:59:00,34.5,27.8,29.06,East,90,5.6,6.5,76,0.00,,---,0.00,VWS V14.01,2013-04-17 13:59:00,
2013-04-17 09:00:00,34.5,27.8,29.06,East,90,7.4,7.6,76,0.00,,---,0.00,VWS V14.01,2013-04-17 14:00:00,
2013-04-17 09:02:00,34.5,27.8,29.06,ESE,112,6.5,7.4,76,0.00,,---,0.00,VWS V14.01,2013-04-17 14:02:00,
2013-04-17 09:04:00,34.5,27.8,29.06,East,90,4.3,6.3,76,0.00,,---,0.00,VWS V14.01,2013-04-17 14:04:00,
2013-04-17 09:06:00,34.5,27.8,29.06,East,90,5.8,6.0,76,0.00,,---,0.00,VWS V14.01,2013-04-17 14:06:00,
2013-04-17 09:08:00,34.5,27.8,29.06,East,90,5.6,6.3,76,0.00,,---,0.00,VWS V14.01,2013-04-17 14:08:00,
2013-04-17 09:09:00,34.5,27.4,29.03,East,90,4.9,5.6,75,0.00,,---,0.00,VWS V14.01,2013-04-17 14:09:00,
2013-04-17 09:10:00,34.5,27.8,29.03,East,90,4.9,6.0,76,0.00,,---,0.00,VWS V14.01,2013-04-17 14:10:00,
2013-04-17 09:12:00,34.5,27.4,29.03,East,90,5.6,6.0,75,0.00,,---,0.00,VWS V14.01,2013-04-17 14:12:00,
2013-04-17 09:14:00,34.5,27.8,29.03,ENE,68,6.3,6.3,76,0.00,,---,0.00,VWS V14.01,2013-04-17 14:14:00,
2013-04-17 09:16:00,34.5,27.8,29.03,East,90,6.3,6.3,76,0.00,,---,0.00,VWS V14.01,2013-04-17 14:16:00,
2013-04-17 09:18:00,34.5,27.8,29.03,ENE,68,6.3,6.3,76,0.00,,---,0.00,VWS V14.01,2013-04-17 14:18:00,
2013-04-17 09:19:00,34.7,27.9,29.03,ENE,68,6.5,6.5,76,0.00,,---,0.00,VWS V14.01,2013-04-17 14:19:00,
2013-04-17 09:20:00,34.5,27.8,29.03,ENE,68,6.3,7.2,76,0.00,,---,0.00,VWS V14.01,2013-04-17 14:20:00,
2013-04-17 09:22:00,34.5,27.8,29.03,ENE,68,6.5,7.4,76,0.00,,---,0.00,VWS V14.01,2013-04-17 14:22:00,
2013-04-17 09:24:00,34.9,27.8,29.00,ENE,68,7.6,7.6,75,0.00,,---,0.00,VWS V14.01,2013-04-17 14:24:00,
2013-04-17 09:26:00,34.7,27.6,29.00,ENE,68,7.4,7.4,75,0.00,,---,0.00,VWS V14.01,2013-04-17 14:26:00,
2013-04-17 09:28:00,34.9,27.8,29.00,East,90,7.4,7.6,75,0.00,,---,0.00,VWS V14.01,2013-04-17 14:28:00,
2013-04-17 09:29:00,34.9,27.5,29.00,East,90,7.4,8.1,74,0.00,,---,0.00,VWS V14.01,2013-04-17 14:29:00,
2013-04-17 09:30:00,34.9,27.5,29.00,ENE,68,8.7,8.7,74,0.00,,---,0.00,VWS V14.01,2013-04-17 14:30:00,
2013-04-17 09:32:00,34.9,27.5,29.00,ENE,68,8.1,8.7,74,0.00,,---,0.00,VWS V14.01,2013-04-17 14:32:00,
2013-04-17 09:34:00,35.1,27.0,29.00,ENE,68,8.5,9.4,72,0.00,,---,0.00,VWS V14.01,2013-04-17 14:34:00,
2013-04-17 09:36:00,35.1,27.3,29.00,ENE,68,7.6,9.0,73,0.00,,---,0.00,VWS V14.01,2013-04-17 14:36:00,
2013-04-17 09:38:00,35.1,27.0,29.00,ENE,68,8.7,9.4,72,0.00,,---,0.00,VWS V14.01,2013-04-17 14:38:00,
2013-04-17 09:39:00,35.1,27.0,29.03,ENE,68,9.8,9.8,72,0.00,,---,0.00,VWS V14.01,2013-04-17 14:39:00,
2013-04-17 09:40:00,35.1,27.0,29.03,ENE,68,11.0,12.3,72,0.00,,---,0.00,VWS V14.01,2013-04-17 14:40:00,
2013-04-17 09:42:00,35.1,27.0,29.03,ENE,68,9.8,11.0,72,0.00,,---,0.00,VWS V14.01,2013-04-17 14:42:00,
2013-04-17 09:44:00,35.2,26.8,29.03,ENE,68,10.3,10.5,71,0.00,,---,0.00,VWS V14.01,2013-04-17 14:44:00,
2013-04-17 09:46:00,35.2,26.8,29.03,ENE,68,8.1,11.0,71,0.00,,---,0.00,VWS V14.01,2013-04-17 14:46:00,
2013-04-17 09:48:00,35.2,26.8,29.03,ENE,68,10.7,10.7,71,0.00,,---,0.00,VWS V14.01,2013-04-17 14:48:00,
2013-04-17 09:49:00,35.4,27.0,29.03,ENE,68,10.5,10.5,71,0.00,,---,0.00,VWS V14.01,2013-04-17 14:49:00,
2013-04-17 09:50:00,35.2,26.8,29.03,ENE,68,10.5,13.2,71,0.00,,---,0.00,VWS V14.01,2013-04-17 14:50:00,
2013-04-17 09:52:00,35.4,27.0,29.03,ENE,68,9.8,10.7,71,0.00,,---,0.00,VWS V14.01,2013-04-17 14:52:00,
2013-04-17 09:54:00,35.4,27.3,29.00,East,90,9.8,10.1,72,0.00,,---,0.00,VWS V14.01,2013-04-17 14:54:00,
2013-04-17 09:56:00,35.4,27.3,29.00,ENE,68,7.8,10.1,72,0.00,,---,0.00,VWS V14.01,2013-04-17 14:56:00,
2013-04-17 09:58:00,35.4,27.3,29.00,ENE,68,7.6,10.1,72,0.00,,---,0.00,VWS V14.01,2013-04-17 14:58:00,
2013-04-17 09:59:00,35.4,27.3,29.00,ENE,68,8.5,9.8,72,0.00,,---,0.00,VWS V14.01,2013-04-17 14:59:00,
2013-04-17 10:00:00,35.4,27.3,29.00,East,90,8.5,9.0,72,0.00,,---,0.00,VWS V14.01,2013-04-17 15:00:00,
2013-04-17 10:02:00,35.4,27.3,29.00,East,90,9.0,10.7,72,0.00,,---,0.00,VWS V14.01,2013-04-17 15:02:00,
2013-04-17 10:04:00,35.6,26.8,29.00,ENE,68,9.0,9.0,70,0.00,,---,0.00,VWS V14.01,2013-04-17 15:04:00,
2013-04-17 10:06:00,35.6,27.1,29.00,ENE,68,8.1,11.2,71,0.00,,---,0.00,VWS V14.01,2013-04-17 15:06:00,
2013-04-17 10:08:00,35.6,26.8,29.00,ENE,68,8.1,9.0,70,0.00,,---,0.00,VWS V14.01,2013-04-17 15:08:00,
2013-04-17 10:09:00,35.6,26.8,29.00,ENE,68,10.3,11.0,70,0.00,,---,0.00,VWS V14.01,2013-04-17 15:09:00,
2013-04-17 10:10:00,35.6,26.8,29.00,ENE,68,7.8,8.5,70,0.00,,---,0.00,VWS V14.01,2013-04-17 15:10:00,
2013-04-17 10:12:00,35.6,26.8,29.00,ENE,68,11.0,11.0,70,0.00,,---,0.00,VWS V14.01,2013-04-17 15:12:00,
2013-04-17 10:14:00,35.6,26.8,29.00,ENE,68,7.8,10.3,70,0.00,,---,0.00,VWS V14.01,2013-04-17 15:14:00,
2013-04-17 10:16:00,35.6,26.8,29.00,ENE,68,10.3,13.0,70,0.00,,---,0.00,VWS V14.01,2013-04-17 15:16:00,
2013-04-17 10:18:00,35.6,26.8,29.00,ENE,68,8.5,10.3,70,0.00,,---,0.00,VWS V14.01,2013-04-17 15:18:00,
2013-04-17 10:19:00,35.8,27.0,29.00,ESE,112,8.7,10.1,70,0.00,,---,0.00,VWS V14.01,2013-04-17 15:19:00,
2013-04-17 10:20:00,35.8,27.0,29.00,ENE,68,7.8,9.0,70,0.00,,---,0.00,VWS V14.01,2013-04-17 15:20:00,
2013-04-17 10:22:00,35.8,27.0,29.00,ENE,68,9.4,9.4,70,0.00,,---,0.00,VWS V14.01,2013-04-17 15:22:00,
2013-04-17 10:24:00,35.8,26.6,29.00,ENE,68,7.6,11.0,69,0.00,,---,0.00,VWS V14.01,2013-04-17 15:24:00,
2013-04-17 10:26:00,35.8,27.0,29.00,East,90,9.4,10.7,70,0.00,,---,0.00,VWS V14.01,2013-04-17 15:26:00,
2013-04-17 10:28:00,35.8,26.6,29.00,East,90,10.7,11.0,69,0.00,,---,0.00,VWS V14.01,2013-04-17 15:28:00,
2013-04-17 10:29:00,36.0,26.8,29.00,ENE,68,7.4,10.3,69,0.00,,---,0.00,VWS V14.01,2013-04-17 15:29:00,
2013-04-17 10:30:00,35.8,26.6,29.00,NNW,338,9.6,10.7,69,0.00,,---,0.00,VWS V14.01,2013-04-17 15:30:00,
2013-04-17 10:32:00,35.8,26.6,29.00,ENE,68,10.3,10.7,69,0.00,,---,0.00,VWS V14.01,2013-04-17 15:32:00,
2013-04-17 10:34:00,36.0,27.1,29.00,ENE,68,7.6,8.7,70,0.00,,---,0.00,VWS V14.01,2013-04-17 15:34:00,
2013-04-17 10:36:00,36.0,27.1,29.00,East,90,6.7,9.8,70,0.00,,---,0.00,VWS V14.01,2013-04-17 15:36:00,
2013-04-17 10:38:00,36.0,27.1,29.00,ENE,68,7.6,8.7,70,0.00,,---,0.00,VWS V14.01,2013-04-17 15:38:00,
2013-04-17 10:39:00,36.0,27.1,29.00,ENE,68,8.1,8.1,70,0.00,,---,0.00,VWS V14.01,2013-04-17 15:39:00,
2013-04-17 10:40:00,36.0,27.5,29.00,ENE,68,8.5,10.7,71,0.00,,---,0.00,VWS V14.01,2013-04-17 15:40:00,
2013-04-17 10:42:00,36.0,27.5,29.00,ENE,68,7.6,8.5,71,0.00,,---,0.00,VWS V14.01,2013-04-17 15:42:00,
2013-04-17 10:44:00,36.0,26.8,29.00,ENE,68,10.5,11.0,69,0.00,,---,0.00,VWS V14.01,2013-04-17 15:44:00,
2013-04-17 10:46:00,36.0,26.8,29.00,ENE,68,10.3,11.2,69,0.00,,---,0.00,VWS V14.01,2013-04-17 15:46:00,
2013-04-17 10:48:00,36.0,26.8,29.00,ENE,68,10.5,11.0,69,0.00,,---,0.00,VWS V14.01,2013-04-17 15:48:00,
2013-04-17 10:49:00,36.1,27.0,29.00,East,90,6.9,9.8,69,0.00,,---,0.00,VWS V14.01,2013-04-17 15:49:00,
2013-04-17 10:50:00,36.1,27.0,29.00,ENE,68,7.6,10.5,69,0.00,,---,0.00,VWS V14.01,2013-04-17 15:50:00,
2013-04-17 10:52:00,36.1,27.3,29.00,ENE,68,5.8,10.5,70,0.00,,---,0.00,VWS V14.01,2013-04-17 15:52:00,
2013-04-17 10:54:00,36.1,27.3,29.00,ENE,68,8.7,8.7,70,0.00,,---,0.00,VWS V14.01,2013-04-17 15:54:00,
2013-04-17 10:56:00,36.1,27.3,29.00,ENE,68,6.5,8.1,70,0.00,,---,0.00,VWS V14.01,2013-04-17 15:56:00,
2013-04-17 10:58:00,36.1,27.3,29.00,ENE,68,8.7,8.7,70,0.00,,---,0.00,VWS V14.01,2013-04-17 15:58:00,
2013-04-17 10:59:00,36.1,27.3,29.00,East,90,9.2,10.5,70,0.00,,---,0.00,VWS V14.01,2013-04-17 15:59:00,
2013-04-17 11:00:00,36.1,27.3,29.00,ENE,68,8.5,8.7,70,0.00,,---,0.00,VWS V14.01,2013-04-17 16:00:00,
2013-04-17 11:02:00,36.1,27.7,29.00,ENE,68,10.5,10.5,71,0.00,,---,0.00,VWS V14.01,2013-04-17 16:02:00,
2013-04-17 11:04:00,36.1,27.3,29.00,ENE,68,8.7,9.8,70,0.00,,---,0.00,VWS V14.01,2013-04-17 16:04:00,
2013-04-17 11:06:00,36.1,27.3,29.00,ENE,68,9.2,9.2,70,0.00,,---,0.00,VWS V14.01,2013-04-17 16:06:00,
2013-04-17 11:08:00,36.1,27.3,29.00,ENE,68,8.7,9.8,70,0.00,,---,0.00,VWS V14.01,2013-04-17 16:08:00,
2013-04-17 11:09:00,36.1,27.0,29.00,ENE,68,11.2,12.5,69,0.00,,---,0.00,VWS V14.01,2013-04-17 16:09:00,
2013-04-17 11:10:00,36.1,27.3,29.00,ENE,68,11.0,11.2,70,0.00,,---,0.00,VWS V14.01,2013-04-17 16:10:00,
2013-04-17 11:12:00,36.1,27.0,29.00,ENE,68,10.1,11.2,69,0.00,,---,0.00,VWS V14.01,2013-04-17 16:12:00,
2013-04-17 11:14:00,36.1,27.0,29.00,ENE,68,10.5,12.5,69,0.00,,---,0.00,VWS V14.01,2013-04-17 16:14:00,
2013-04-17 11:15:00,36.1,27.0,29.00,ENE,68,11.0,11.0,69,0.00,,---,0.00,VWS V14.01,2013-04-17 16:15:00,
2013-04-17 11:16:00,36.1,27.0,29.00,ENE,68,10.3,12.1,69,0.00,,---,0.00,VWS V14.01,2013-04-17 16:16:00,
2013-04-17 11:18:00,36.1,27.0,29.00,ENE,68,11.0,13.0,69,0.00,,---,0.00,VWS V14.01,2013-04-17 16:18:00,
2013-04-17 11:20:00,36.1,26.6,29.00,ENE,68,13.2,13.2,68,0.00,,---,0.00,VWS V14.01,2013-04-17 16:20:00,
2013-04-17 11:22:00,36.1,26.6,29.00,ENE,68,13.2,14.8,68,0.00,,---,0.00,VWS V14.01,2013-04-17 16:22:00,
2013-04-17 11:24:00,36.1,26.6,28.97,ENE,68,10.7,13.2,68,0.00,,---,0.00,VWS V14.01,2013-04-17 16:24:00,
2013-04-17 11:25:00,36.3,26.4,28.97,ENE,68,8.7,8.7,67,0.00,,---,0.00,VWS V14.01,2013-04-17 16:25:00,
2013-04-17 11:26:00,36.1,26.2,28.97,ENE,68,10.1,14.8,67,0.00,,---,0.00,VWS V14.01,2013-04-17 16:26:00,
2013-04-17 11:28:00,36.3,26.4,28.97,ENE,68,8.7,10.5,67,0.00,,---,0.00,VWS V14.01,2013-04-17 16:28:00,
2013-04-17 11:30:00,36.3,26.8,28.97,ENE,68,8.7,8.7,68,0.00,,---,0.00,VWS V14.01,2013-04-17 16:30:00,
2013-04-17 11:32:00,36.3,26.8,28.97,ENE,68,8.5,10.3,68,0.00,,---,0.00,VWS V14.01,2013-04-17 16:32:00,
2013-04-17 11:34:00,36.3,27.1,28.97,ENE,68,10.5,10.5,69,0.00,,---,0.00,VWS V14.01,2013-04-17 16:34:00,
2013-04-17 11:35:00,36.1,27.3,28.97,ENE,68,9.6,9.6,70,0.00,,---,0.00,VWS V14.01,2013-04-17 16:35:00,
2013-04-17 11:36:00,36.3,27.1,28.97,ENE,68,8.1,10.5,69,0.00,,---,0.00,VWS V14.01,2013-04-17 16:36:00,
2013-04-17 11:38:00,36.3,27.5,28.97,ENE,68,8.7,10.5,70,0.00,,---,0.00,VWS V14.01,2013-04-17 16:38:00,
2013-04-17 11:40:00,36.1,26.6,28.97,ENE,68,13.0,13.0,68,0.00,,---,0.00,VWS V14.01,2013-04-17 16:40:00,
2013-04-17 11:42:00,36.1,27.0,28.97,ENE,68,12.5,12.5,69,0.00,,---,0.00,VWS V14.01,2013-04-17 16:42:00,
2013-04-17 11:44:00,36.1,26.6,28.97,NE,45,12.1,13.0,68,0.00,,---,0.00,VWS V14.01,2013-04-17 16:44:00,
2013-04-17 11:45:00,36.3,26.8,28.97,ENE,68,13.0,13.0,68,0.00,,---,0.00,VWS V14.01,2013-04-17 16:45:00,
2013-04-17 11:46:00,36.3,26.8,28.97,ENE,68,10.1,14.1,68,0.00,,---,0.00,VWS V14.01,2013-04-17 16:46:00,
2013-04-17 11:48:00,36.3,26.8,28.97,ENE,68,13.0,14.1,68,0.00,,---,0.00,VWS V14.01,2013-04-17 16:48:00,
2013-04-17 11:50:00,36.3,27.5,28.97,ENE,68,14.5,14.5,70,0.00,,---,0.00,VWS V14.01,2013-04-17 16:50:00,
2013-04-17 11:52:00,36.3,27.5,28.97,ENE,68,10.3,12.3,70,0.00,,---,0.00,VWS V14.01,2013-04-17 16:52:00,
2013-04-17 11:54:00,36.3,27.5,28.97,ENE,68,12.5,14.8,70,0.00,,---,0.00,VWS V14.01,2013-04-17 16:54:00,
2013-04-17 11:55:00,36.3,27.1,28.97,ENE,68,11.9,12.3,69,0.00,,---,0.00,VWS V14.01,2013-04-17 16:55:00,
2013-04-17 11:56:00,36.3,27.5,28.97,ENE,68,10.3,12.8,70,0.00,,---,0.00,VWS V14.01,2013-04-17 16:56:00,
2013-04-17 11:58:00,36.3,27.1,28.97,ENE,68,12.3,15.2,69,0.00,,---,0.00,VWS V14.01,2013-04-17 16:58:00,
2013-04-17 12:00:00,36.5,27.7,28.97,ENE,68,8.5,12.3,70,0.00,,---,0.00,VWS V14.01,2013-04-17 17:00:00,
2013-04-17 12:02:00,36.5,27.7,28.97,ENE,68,10.7,13.2,70,0.00,,---,0.00,VWS V14.01,2013-04-17 17:02:00,
2013-04-17 12:04:00,36.5,27.7,28.97,ENE,68,10.1,12.3,70,0.00,,---,0.00,VWS V14.01,2013-04-17 17:04:00,
2013-04-17 12:05:00,36.5,27.3,28.97,ENE,68,15.4,15.4,69,0.00,,---,0.00,VWS V14.01,2013-04-17 17:05:00,
2013-04-17 12:06:00,36.5,28.0,28.97,ENE,68,12.8,15.4,71,0.00,,---,0.00,VWS V14.01,2013-04-17 17:06:00,
2013-04-17 12:08:00,36.5,27.7,28.97,ENE,68,14.8,17.7,70,0.00,,---,0.00,VWS V14.01,2013-04-17 17:08:00,
2013-04-17 12:10:00,36.3,27.5,28.97,ENE,68,13.2,15.4,70,0.00,,---,0.00,VWS V14.01,2013-04-17 17:10:00,
2013-04-17 12:12:00,36.5,27.3,28.97,ENE,68,13.0,15.7,69,0.00,,---,0.00,VWS V14.01,2013-04-17 17:12:00,
2013-04-17 12:14:00,36.3,27.5,28.97,ENE,68,16.8,17.7,70,0.00,,---,0.00,VWS V14.01,2013-04-17 17:14:00,
2013-04-17 12:15:00,36.5,27.3,28.97,ENE,68,19.9,20.1,69,0.00,,---,0.00,VWS V14.01,2013-04-17 17:15:00,
2013-04-17 12:16:00,36.5,27.3,28.97,ENE,68,15.4,17.9,69,0.00,,---,0.00,VWS V14.01,2013-04-17 17:16:00,
2013-04-17 12:18:00,36.5,27.3,28.97,ENE,68,20.1,20.1,69,0.00,,---,0.00,VWS V14.01,2013-04-17 17:18:00,
2013-04-17 12:20:00,36.5,27.0,28.97,ENE,68,16.6,19.9,68,0.00,,---,0.00,VWS V14.01,2013-04-17 17:20:00,
2013-04-17 12:22:00,36.5,27.3,28.97,ENE,68,18.8,18.8,69,0.00,,---,0.00,VWS V14.01,2013-04-17 17:22:00,
2013-04-17 12:25:00,36.3,27.1,28.97,ENE,68,19.0,19.0,69,0.00,,---,0.00,VWS V14.01,2013-04-17 17:25:00,
2013-04-17 12:26:00,36.3,27.1,28.97,ENE,68,17.7,19.9,69,0.00,,---,0.00,VWS V14.01,2013-04-17 17:26:00,
2013-04-17 12:28:00,36.3,27.1,28.97,ENE,68,15.4,17.7,69,0.00,,---,0.00,VWS V14.01,2013-04-17 17:28:00,
2013-04-17 12:30:00,36.3,26.8,28.97,ENE,68,17.7,21.3,68,0.00,,---,0.00,VWS V14.01,2013-04-17 17:30:00,
2013-04-17 12:32:00,36.3,26.8,28.97,ENE,68,17.5,19.7,68,0.00,,---,0.00,VWS V14.01,2013-04-17 17:32:00,
2013-04-17 12:34:00,36.3,26.8,28.97,ENE,68,19.9,21.3,68,0.00,,---,0.00,VWS V14.01,2013-04-17 17:34:00,
2013-04-17 12:35:00,36.3,27.5,28.97,ENE,68,15.4,15.4,70,0.00,,---,0.00,VWS V14.01,2013-04-17 17:35:00,
2013-04-17 12:36:00,36.3,27.1,28.97,ENE,68,13.6,19.9,69,0.00,,---,0.00,VWS V14.01,2013-04-17 17:36:00,
2013-04-17 12:38:00,36.3,27.1,28.97,ENE,68,14.8,17.2,69,0.00,,---,0.00,VWS V14.01,2013-04-17 17:38:00,
2013-04-17 12:40:00,36.3,27.8,28.97,ENE,68,10.5,12.5,71,0.00,,---,0.00,VWS V14.01,2013-04-17 17:40:00,
2013-04-17 12:42:00,36.3,27.5,28.97,ESE,112,10.5,17.2,70,0.00,,---,0.00,VWS V14.01,2013-04-17 17:42:00,
2013-04-17 12:44:00,36.3,27.8,28.97,ENE,68,12.8,15.4,71,0.00,,---,0.00,VWS V14.01,2013-04-17 17:44:00,
2013-04-17 12:45:00,36.3,27.5,28.97,ENE,68,12.5,19.5,70,0.00,,---,0.00,VWS V14.01,2013-04-17 17:45:00,
2013-04-17 12:46:00,36.3,27.8,28.97,ENE,68,12.5,15.2,71,0.00,,---,0.00,VWS V14.01,2013-04-17 17:46:00,
2013-04-17 12:48:00,36.3,27.5,28.97,ENE,68,16.3,17.2,70,0.00,,---,0.00,VWS V14.01,2013-04-17 17:48:00,
2013-04-17 12:50:00,36.3,27.5,28.97,ENE,68,13.2,13.2,70,0.00,,---,0.00,VWS V14.01,2013-04-17 17:50:00,
2013-04-17 12:52:00,36.3,27.5,28.97,ENE,68,10.5,14.1,70,0.00,,---,0.00,VWS V14.01,2013-04-17 17:52:00,
2013-04-17 12:54:00,36.3,27.5,28.97,ENE,68,12.1,13.2,70,0.00,,---,0.00,VWS V14.01,2013-04-17 17:54:00,
2013-04-17 12:55:00,36.5,27.3,28.97,East,90,12.1,12.1,69,0.00,,---,0.00,VWS V14.01,2013-04-17 17:55:00,
2013-04-17 12:56:00,36.3,27.5,28.97,ENE,68,13.9,13.9,70,0.00,,---,0.00,VWS V14.01,2013-04-17 17:56:00,
2013-04-17 12:58:00,36.3,27.1,28.97,East,90,10.3,16.6,69,0.00,,---,0.00,VWS V14.01,2013-04-17 17:58:00,
2013-04-17 13:00:00,36.7,28.2,28.97,ENE,68,8.1,10.5,71,0.00,,---,0.00,VWS V14.01,2013-04-17 18:00:00,
2013-04-17 13:02:00,36.7,28.2,28.97,East,90,10.3,10.3,71,0.00,,---,0.00,VWS V14.01,2013-04-17 18:02:00,
2013-04-17 13:04:00,36.7,28.2,28.97,ENE,68,8.1,10.5,71,0.00,,---,0.00,VWS V14.01,2013-04-17 18:04:00,
2013-04-17 13:05:00,37.0,28.2,28.97,ENE,68,13.2,13.2,70,0.00,,---,0.00,VWS V14.01,2013-04-17 18:05:00,
2013-04-17 13:06:00,36.9,28.4,28.97,ENE,68,10.5,11.0,71,0.00,,---,0.00,VWS V14.01,2013-04-17 18:06:00,
2013-04-17 13:08:00,37.0,28.2,28.97,East,90,11.0,11.0,70,0.00,,---,0.00,VWS V14.01,2013-04-17 18:08:00,
2013-04-17 13:10:00,37.2,27.6,28.94,ENE,68,12.3,14.5,68,0.00,,---,0.00,VWS V14.01,2013-04-17 18:10:00,
2013-04-17 13:12:00,37.2,28.0,28.94,ENE,68,14.5,14.5,69,0.00,,---,0.00,VWS V14.01,2013-04-17 18:12:00,
2013-04-17 13:14:00,37.2,27.6,28.94,ENE,68,12.8,14.5,68,0.00,,---,0.00,VWS V14.01,2013-04-17 18:14:00,
2013-04-17 13:15:00,37.4,27.5,28.94,ENE,68,13.2,13.2,67,0.00,,---,0.00,VWS V14.01,2013-04-17 18:15:00,
2013-04-17 13:16:00,37.2,27.6,28.94,East,90,10.1,12.8,68,0.00,,---,0.00,VWS V14.01,2013-04-17 18:16:00,
2013-04-17 13:18:00,37.4,27.5,28.94,ENE,68,11.2,14.1,67,0.00,,---,0.00,VWS V14.01,2013-04-17 18:18:00,
2013-04-17 13:20:00,37.4,27.5,28.94,ENE,68,13.2,15.2,67,0.00,,---,0.00,VWS V14.01,2013-04-17 18:20:00,
2013-04-17 13:22:00,37.4,27.5,28.94,NNE,22,15.2,18.1,67,0.00,,---,0.00,VWS V14.01,2013-04-17 18:22:00,
2013-04-17 13:24:00,37.4,27.5,28.94,ENE,68,13.2,15.2,67,0.00,,---,0.00,VWS V14.01,2013-04-17 18:24:00,
2013-04-17 13:25:00,37.4,27.5,28.94,ENE,68,13.6,13.6,67,0.00,,---,0.00,VWS V14.01,2013-04-17 18:25:00,
2013-04-17 13:26:00,37.4,27.5,28.94,ENE,68,14.3,15.9,67,0.00,,---,0.00,VWS V14.01,2013-04-17 18:26:00,
2013-04-17 13:28:00,37.4,27.5,28.94,ENE,68,12.5,16.8,67,0.00,,---,0.00,VWS V14.01,2013-04-17 18:28:00,
2013-04-17 13:30:00,37.4,27.5,28.94,ENE,68,13.2,15.4,67,0.00,,---,0.00,VWS V14.01,2013-04-17 18:30:00,
2013-04-17 13:32:00,37.4,27.5,28.94,ENE,68,14.5,15.2,67,0.00,,---,0.00,VWS V14.01,2013-04-17 18:32:00,
2013-04-17 13:34:00,37.4,27.5,28.94,ENE,68,14.3,15.4,67,0.00,,---,0.00,VWS V14.01,2013-04-17 18:34:00,
2013-04-17 13:35:00,37.4,27.1,28.94,ENE,68,13.2,15.2,66,0.00,,---,0.00,VWS V14.01,2013-04-17 18:35:00,
2013-04-17 13:36:00,37.4,27.5,28.94,ENE,68,12.5,15.2,67,0.00,,---,0.00,VWS V14.01,2013-04-17 18:36:00,
2013-04-17 13:38:00,37.4,27.1,28.94,ENE,68,15.2,17.7,66,0.00,,---,0.00,VWS V14.01,2013-04-17 18:38:00,
2013-04-17 13:40:00,37.6,28.0,28.91,ENE,68,11.4,13.2,68,0.00,,---,0.00,VWS V14.01,2013-04-17 18:40:00,
2013-04-17 13:42:00,37.6,27.6,28.91,ENE,68,9.8,12.8,67,0.00,,---,0.00,VWS V14.01,2013-04-17 18:42:00,
2013-04-17 13:44:00,37.6,28.0,28.91,ENE,68,10.7,13.2,68,0.00,,---,0.00,VWS V14.01,2013-04-17 18:44:00,
2013-04-17 13:45:00,37.8,28.2,28.91,NE,45,10.7,13.4,68,0.00,,---,0.00,VWS V14.01,2013-04-17 18:45:00,
2013-04-17 13:46:00,37.6,28.0,28.91,ENE,68,9.8,10.7,68,0.00,,---,0.00,VWS V14.01,2013-04-17 18:46:00,
2013-04-17 13:48:00,37.8,28.2,28.91,East,90,13.0,13.0,68,0.00,,---,0.00,VWS V14.01,2013-04-17 18:48:00,
2013-04-17 13:50:00,38.1,27.8,28.91,ENE,68,15.4,16.8,66,0.00,,---,0.00,VWS V14.01,2013-04-17 18:50:00,
2013-04-17 13:52:00,37.9,27.6,28.91,ENE,68,14.8,16.3,66,0.00,,---,0.00,VWS V14.01,2013-04-17 18:52:00,
2013-04-17 13:54:00,38.1,27.8,28.91,ENE,68,15.4,16.8,66,0.00,,---,0.00,VWS V14.01,2013-04-17 18:54:00,
2013-04-17 13:55:00,37.9,27.6,28.91,ENE,68,11.0,13.2,66,0.00,,---,0.00,VWS V14.01,2013-04-17 18:55:00,
2013-04-17 13:56:00,38.1,27.8,28.91,East,90,9.8,15.4,66,0.00,,---,0.00,VWS V14.01,2013-04-17 18:56:00,
2013-04-17 13:58:00,37.9,27.6,28.91,ENE,68,13.2,15.2,66,0.00,,---,0.00,VWS V14.01,2013-04-17 18:58:00,
2013-04-17 14:00:00,37.8,27.8,28.91,ENE,68,15.4,15.4,67,0.00,,---,0.00,VWS V14.01,2013-04-17 19:00:00,
2013-04-17 14:02:00,37.9,27.6,28.91,East,90,11.0,12.1,66,0.00,,---,0.00,VWS V14.01,2013-04-17 19:02:00,
2013-04-17 14:04:00,37.8,27.8,28.91,ENE,68,12.8,15.4,67,0.00,,---,0.00,VWS V14.01,2013-04-17 19:04:00,
2013-04-17 14:05:00,37.8,27.8,28.91,ENE,68,9.8,12.3,67,0.00,,---,0.00,VWS V14.01,2013-04-17 19:05:00,
2013-04-17 14:06:00,37.8,27.8,28.91,ENE,68,12.8,14.5,67,0.00,,---,0.00,VWS V14.01,2013-04-17 19:06:00,
2013-04-17 14:08:00,37.8,27.8,28.91,ENE,68,12.1,13.6,67,0.00,,---,0.00,VWS V14.01,2013-04-17 19:08:00,
2013-04-17 14:10:00,37.9,28.0,28.91,East,90,11.9,12.8,67,0.00,,---,0.00,VWS V14.01,2013-04-17 19:10:00,
2013-04-17 14:12:00,37.8,27.8,28.91,East,90,12.8,12.8,67,0.00,,---,0.00,VWS V14.01,2013-04-17 19:12:00,
2013-04-17 14:15:00,37.9,28.0,28.91,ENE,68,8.5,10.5,67,0.00,,---,0.00,VWS V14.01,2013-04-17 19:15:00,
2013-04-17 14:16:00,38.1,28.1,28.91,East,90,9.8,12.8,67,0.00,,---,0.00,VWS V14.01,2013-04-17 19:16:00,
2013-04-17 14:18:00,38.1,28.1,28.91,ENE,68,10.3,12.3,67,0.00,,---,0.00,VWS V14.01,2013-04-17 19:18:00,
2013-04-17 14:20:00,38.3,28.7,28.91,East,90,7.4,8.5,68,0.00,,---,0.00,VWS V14.01,2013-04-17 19:20:00,
2013-04-17 14:22:00,38.1,28.1,28.91,ENE,68,8.5,11.0,67,0.00,,---,0.00,VWS V14.01,2013-04-17 19:22:00,
2013-04-17 14:24:00,38.3,28.7,28.91,East,90,8.1,8.5,68,0.00,,---,0.00,VWS V14.01,2013-04-17 19:24:00,
2013-04-17 14:25:00,38.7,28.7,28.91,East,90,10.7,12.5,67,0.00,,---,0.00,VWS V14.01,2013-04-17 19:25:00,
2013-04-17 14:26:00,38.5,29.2,28.91,East,90,12.5,13.0,69,0.00,,---,0.00,VWS V14.01,2013-04-17 19:26:00,
2013-04-17 14:28:00,38.7,28.7,28.91,East,90,11.4,12.5,67,0.00,,---,0.00,VWS V14.01,2013-04-17 19:28:00,
2013-04-17 14:30:00,39.2,28.8,28.91,ESE,112,6.3,9.8,66,0.00,,---,0.00,VWS V14.01,2013-04-17 19:30:00,
2013-04-17 14:32:00,38.8,28.5,28.91,East,90,8.5,11.0,66,0.00,,---,0.00,VWS V14.01,2013-04-17 19:32:00,
2013-04-17 14:34:00,39.2,28.8,28.91,ESE,112,6.3,9.8,66,0.00,,---,0.00,VWS V14.01,2013-04-17 19:34:00,
2013-04-17 14:35:00,39.2,28.8,28.91,East,90,8.7,10.5,66,0.00,,---,0.00,VWS V14.01,2013-04-17 19:35:00,
2013-04-17 14:36:00,39.2,28.8,28.91,East,90,10.7,10.7,66,0.00,,---,0.00,VWS V14.01,2013-04-17 19:36:00,
2013-04-17 14:38:00,39.2,28.8,28.91,East,90,9.8,11.9,66,0.00,,---,0.00,VWS V14.01,2013-04-17 19:38:00,
2013-04-17 14:40:00,38.8,28.5,28.91,ENE,68,5.8,10.7,66,0.00,,---,0.00,VWS V14.01,2013-04-17 19:40:00,
2013-04-17 14:42:00,39.0,28.6,28.91,East,90,9.8,10.1,66,0.00,,---,0.00,VWS V14.01,2013-04-17 19:42:00,
2013-04-17 14:44:00,38.8,28.5,28.91,ENE,68,5.8,10.7,66,0.00,,---,0.00,VWS V14.01,2013-04-17 19:44:00,
2013-04-17 14:45:00,38.5,28.5,28.91,East,90,5.6,8.7,67,0.00,,---,0.00,VWS V14.01,2013-04-17 19:45:00,
2013-04-17 14:46:00,38.8,28.5,28.91,East,90,7.6,8.7,66,0.00,,---,0.00,VWS V14.01,2013-04-17 19:46:00,
2013-04-17 14:48:00,38.7,28.3,28.91,East,90,8.7,8.7,66,0.00,,---,0.00,VWS V14.01,2013-04-17 19:48:00,
2013-04-17 14:50:00,38.7,28.7,28.91,ENE,68,9.8,10.1,67,0.00,,---,0.00,VWS V14.01,2013-04-17 19:50:00,
2013-04-17 14:52:00,38.5,28.5,28.91,NE,45,10.1,10.1,67,0.00,,---,0.00,VWS V14.01,2013-04-17 19:52:00,
2013-04-17 14:55:00,38.5,28.5,28.91,ENE,68,8.7,12.8,67,0.00,,---,0.00,VWS V14.01,2013-04-17 19:55:00,
2013-04-17 14:56:00,38.5,28.5,28.91,ENE,68,10.5,10.5,67,0.00,,---,0.00,VWS V14.01,2013-04-17 19:56:00,
2013-04-17 14:58:00,38.5,28.5,28.91,ESE,112,12.8,12.8,67,0.00,,---,0.00,VWS V14.01,2013-04-17 19:58:00,
2013-04-17 15:00:00,38.7,28.7,28.91,East,90,15.4,15.4,67,0.00,,---,0.00,VWS V14.01,2013-04-17 20:00:00,
2013-04-17 15:02:00,38.5,28.5,28.91,ESE,112,12.8,12.8,67,0.00,,---,0.00,VWS V14.01,2013-04-17 20:02:00,
2013-04-17 15:04:00,38.7,28.7,28.91,East,90,14.3,15.4,67,0.00,,---,0.00,VWS V14.01,2013-04-17 20:04:00,
2013-04-17 15:05:00,38.7,28.7,28.88,ESE,112,11.2,11.2,67,0.00,,---,0.00,VWS V14.01,2013-04-17 20:05:00,
2013-04-17 15:06:00,38.7,28.7,28.91,ESE,112,12.8,14.5,67,0.00,,---,0.00,VWS V14.01,2013-04-17 20:06:00,
2013-04-17 15:08:00,38.7,28.7,28.91,ESE,112,10.5,14.3,67,0.00,,---,0.00,VWS V14.01,2013-04-17 20:08:00,
2013-04-17 15:10:00,38.8,28.8,28.88,East,90,12.8,13.9,67,0.00,,---,0.00,VWS V14.01,2013-04-17 20:10:00,
2013-04-17 15:12:00,38.8,28.8,28.88,East,90,10.5,11.2,67,0.00,,---,0.00,VWS V14.01,2013-04-17 20:12:00,
2013-04-17 15:14:00,38.8,28.8,28.88,East,90,14.8,14.8,67,0.00,,---,0.00,VWS V14.01,2013-04-17 20:14:00,
2013-04-17 15:15:00,39.2,28.8,28.88,East,90,9.8,11.0,66,0.00,,---,0.00,VWS V14.01,2013-04-17 20:15:00,
2013-04-17 15:16:00,38.8,28.8,28.88,ENE,68,9.8,14.8,67,0.00,,---,0.00,VWS V14.01,2013-04-17 20:16:00,
2013-04-17 15:18:00,39.2,28.8,28.88,ESE,112,8.7,13.6,66,0.00,,---,0.00,VWS V14.01,2013-04-17 20:18:00,
2013-04-17 15:20:00,39.2,28.8,28.88,East,90,10.5,10.5,66,0.00,,---,0.00,VWS V14.01,2013-04-17 20:20:00,
2013-04-17 15:22:00,39.2,28.8,28.88,East,90,10.1,13.9,66,0.00,,---,0.00,VWS V14.01,2013-04-17 20:22:00,
2013-04-17 15:24:00,39.2,28.8,28.88,ESE,112,11.0,11.0,66,0.00,,---,0.00,VWS V14.01,2013-04-17 20:24:00,
2013-04-17 15:25:00,38.8,28.5,28.88,ENE,68,12.8,15.2,66,0.00,,---,0.00,VWS V14.01,2013-04-17 20:25:00,
2013-04-17 15:26:00,39.2,28.8,28.88,East,90,13.2,13.2,66,0.00,,---,0.00,VWS V14.01,2013-04-17 20:26:00,
2013-04-17 15:28:00,39.0,28.6,28.88,NE,45,12.5,13.6,66,0.00,,---,0.00,VWS V14.01,2013-04-17 20:28:00,
2013-04-17 15:30:00,38.7,28.3,28.88,East,90,11.0,11.0,66,0.00,,---,0.00,VWS V14.01,2013-04-17 20:30:00,
2013-04-17 15:32:00,38.8,28.5,28.88,East,90,13.0,13.6,66,0.00,,---,0.00,VWS V14.01,2013-04-17 20:32:00,
2013-04-17 15:34:00,38.7,28.3,28.88,East,90,11.0,13.0,66,0.00,,---,0.00,VWS V14.01,2013-04-17 20:34:00,
2013-04-17 15:36:00,38.7,28.7,28.88,East,90,8.7,11.0,67,0.00,,---,0.00,VWS V14.01,2013-04-17 20:36:00,
2013-04-17 15:38:00,38.7,28.7,28.88,East,90,9.8,15.2,67,0.00,,---,0.00,VWS V14.01,2013-04-17 20:38:00,
2013-04-17 15:40:00,38.7,28.7,28.88,East,90,8.1,11.0,67,0.00,,---,0.00,VWS V14.01,2013-04-17 20:40:00,
2013-04-17 15:41:00,38.5,28.5,28.88,ESE,112,10.7,10.7,67,0.00,,---,0.00,VWS V14.01,2013-04-17 20:41:00,
2013-04-17 15:42:00,38.7,28.7,28.88,East,90,10.3,10.7,67,0.00,,---,0.00,VWS V14.01,2013-04-17 20:42:00,
2013-04-17 15:44:00,38.5,28.5,28.88,ESE,112,10.7,11.0,67,0.00,,---,0.00,VWS V14.01,2013-04-17 20:44:00,
2013-04-17 15:46:00,38.5,28.9,28.88,ESE,112,8.1,9.6,68,0.00,,---,0.00,VWS V14.01,2013-04-17 20:46:00,
2013-04-17 15:48:00,38.5,28.5,28.88,East,90,9.2,11.0,67,0.00,,---,0.00,VWS V14.01,2013-04-17 20:48:00,
2013-04-17 15:50:00,38.3,28.7,28.88,East,90,8.5,9.6,68,0.00,,---,0.00,VWS V14.01,2013-04-17 20:50:00,
2013-04-17 15:51:00,38.3,28.7,28.88,ENE,68,5.6,5.6,68,0.00,,---,0.00,VWS V14.01,2013-04-17 20:51:00,
2013-04-17 15:52:00,38.3,28.7,28.88,East,90,7.4,8.5,68,0.00,,---,0.00,VWS V14.01,2013-04-17 20:52:00,
2013-04-17 15:54:00,38.3,28.7,28.88,East,90,5.6,7.4,68,0.00,,---,0.00,VWS V14.01,2013-04-17 20:54:00,
2013-04-17 15:56:00,37.9,28.3,28.88,East,90,8.5,11.0,68,0.00,,---,0.00,VWS V14.01,2013-04-17 20:56:00,
2013-04-17 15:58:00,37.9,28.3,28.88,ENE,68,6.5,10.1,68,0.00,,---,0.00,VWS V14.01,2013-04-17 20:58:00,
2013-04-17 16:00:00,37.8,28.2,28.88,ENE,68,10.5,11.0,68,0.00,,---,0.00,VWS V14.01,2013-04-17 21:00:00,
2013-04-17 16:01:00,37.6,28.0,28.88,ENE,68,8.7,11.0,68,0.00,,---,0.00,VWS V14.01,2013-04-17 21:01:00,
2013-04-17 16:02:00,37.8,28.2,28.88,ENE,68,10.5,11.0,68,0.00,,---,0.00,VWS V14.01,2013-04-17 21:02:00,
2013-04-17 16:04:00,37.6,28.0,28.88,East,90,10.7,11.0,68,0.00,,---,0.00,VWS V14.01,2013-04-17 21:04:00,
2013-04-17 16:06:00,37.4,28.5,28.85,East,90,10.1,11.9,70,0.00,,---,0.00,VWS V14.01,2013-04-17 21:06:00,
2013-04-17 16:08:00,37.4,28.5,28.88,ENE,68,8.5,13.2,70,0.00,,---,0.00,VWS V14.01,2013-04-17 21:08:00,
2013-04-17 16:10:00,37.2,28.7,28.85,East,90,10.1,11.9,71,0.00,,---,0.00,VWS V14.01,2013-04-17 21:10:00,
2013-04-17 16:11:00,37.4,28.5,28.85,ENE,68,12.8,12.8,70,0.00,,---,0.00,VWS V14.01,2013-04-17 21:11:00,
2013-04-17 16:12:00,37.2,28.7,28.85,ENE,68,12.3,12.3,71,0.00,,---,0.00,VWS V14.01,2013-04-17 21:12:00,
2013-04-17 16:14:00,37.4,28.5,28.85,ENE,68,12.8,13.6,70,0.00,,---,0.00,VWS V14.01,2013-04-17 21:14:00,
2013-04-17 16:16:00,37.4,28.5,28.85,NE,45,9.2,13.0,70,0.00,,---,0.00,VWS V14.01,2013-04-17 21:16:00,
2013-04-17 16:18:00,37.2,28.4,28.85,ENE,68,13.0,13.2,70,0.00,,---,0.00,VWS V14.01,2013-04-17 21:18:00,
2013-04-17 16:20:00,37.4,28.5,28.85,ENE,68,8.1,13.0,70,0.00,,---,0.00,VWS V14.01,2013-04-17 21:20:00,
2013-04-17 16:21:00,37.2,28.7,28.85,ENE,68,11.4,11.4,71,0.00,,---,0.00,VWS V14.01,2013-04-17 21:21:00,
2013-04-17 16:22:00,37.4,28.9,28.85,ENE,68,9.4,10.7,71,0.00,,---,0.00,VWS V14.01,2013-04-17 21:22:00,
2013-04-17 16:24:00,37.2,28.7,28.85,ENE,68,10.5,10.7,71,0.00,,---,0.00,VWS V14.01,2013-04-17 21:24:00,
2013-04-17 16:26:00,37.4,28.5,28.85,ENE,68,14.8,14.8,70,0.00,,---,0.00,VWS V14.01,2013-04-17 21:26:00,
2013-04-17 16:28:00,37.4,28.5,28.85,ENE,68,13.2,13.2,70,0.00,,---,0.00,VWS V14.01,2013-04-17 21:28:00,
2013-04-17 16:30:00,37.4,28.2,28.85,ENE,68,13.0,14.8,69,0.00,,---,0.00,VWS V14.01,2013-04-17 21:30:00,
2013-04-17 16:31:00,37.6,28.4,28.85,ENE,68,12.3,12.3,69,0.00,,---,0.00,VWS V14.01,2013-04-17 21:31:00,
2013-04-17 16:32:00,37.4,27.8,28.85,ENE,68,12.5,14.5,68,0.00,,---,0.00,VWS V14.01,2013-04-17 21:32:00,
2013-04-17 16:34:00,37.6,28.4,28.85,ENE,68,10.7,14.8,69,0.00,,---,0.00,VWS V14.01,2013-04-17 21:34:00,
2013-04-17 16:36:00,37.6,28.4,28.85,ENE,68,14.8,15.4,69,0.00,,---,0.00,VWS V14.01,2013-04-17 21:36:00,
2013-04-17 16:38:00,37.6,28.4,28.85,ENE,68,14.5,14.5,69,0.00,,---,0.00,VWS V14.01,2013-04-17 21:38:00,
2013-04-17 16:40:00,37.6,28.4,28.85,ENE,68,15.2,15.4,69,0.00,,---,0.00,VWS V14.01,2013-04-17 21:40:00,
2013-04-17 16:41:00,37.6,28.7,28.85,ENE,68,11.0,11.0,70,0.00,,---,0.00,VWS V14.01,2013-04-17 21:41:00,
2013-04-17 16:42:00,37.6,28.7,28.85,ENE,68,10.5,15.2,70,0.00,,---,0.00,VWS V14.01,2013-04-17 21:42:00,
2013-04-17 16:44:00,37.6,28.7,28.85,ENE,68,10.3,11.4,70,0.00,,---,0.00,VWS V14.01,2013-04-17 21:44:00,
2013-04-17 16:46:00,37.4,28.5,28.85,ENE,68,15.7,15.7,70,0.00,,---,0.00,VWS V14.01,2013-04-17 21:46:00,
2013-04-17 16:48:00,37.4,28.5,28.85,ENE,68,13.6,14.8,70,0.00,,---,0.00,VWS V14.01,2013-04-17 21:48:00,
2013-04-17 16:50:00,37.4,28.5,28.85,ENE,68,14.8,16.8,70,0.00,,---,0.00,VWS V14.01,2013-04-17 21:50:00,
2013-04-17 16:51:00,37.2,28.7,28.85,East,90,13.0,14.3,71,0.00,,---,0.00,VWS V14.01,2013-04-17 21:51:00,
2013-04-17 16:52:00,37.4,28.5,28.85,ENE,68,14.5,16.1,70,0.00,,---,0.00,VWS V14.01,2013-04-17 21:52:00,
2013-04-17 16:54:00,37.2,28.7,28.85,ENE,68,11.0,14.5,71,0.00,,---,0.00,VWS V14.01,2013-04-17 21:54:00,
2013-04-17 16:56:00,37.0,28.5,28.85,ENE,68,12.1,17.2,71,0.00,,---,0.00,VWS V14.01,2013-04-17 21:56:00,
2013-04-17 16:58:00,37.0,28.5,28.85,East,90,12.8,17.7,71,0.00,,---,0.00,VWS V14.01,2013-04-17 21:58:00,
2013-04-17 17:00:00,37.0,28.5,28.85,ENE,68,15.7,17.2,71,0.00,,---,0.00,VWS V14.01,2013-04-17 22:00:00,
2013-04-17 17:01:00,37.0,28.5,28.85,ENE,68,10.7,13.2,71,0.00,,---,0.00,VWS V14.01,2013-04-17 22:01:00,
2013-04-17 17:02:00,37.0,28.5,28.85,ENE,68,14.5,17.5,71,0.00,,---,0.00,VWS V14.01,2013-04-17 22:02:00,
2013-04-17 17:04:00,37.0,28.5,28.85,ENE,68,11.0,14.5,71,0.00,,---,0.00,VWS V14.01,2013-04-17 22:04:00,
2013-04-17 17:06:00,37.0,28.5,28.85,ENE,68,13.6,15.4,71,0.00,,---,0.00,VWS V14.01,2013-04-17 22:06:00,
2013-04-17 17:10:00,37.0,28.5,28.85,ENE,68,13.2,15.4,71,0.00,,---,0.00,VWS V14.01,2013-04-17 22:10:00,
2013-04-17 17:11:00,37.0,28.9,28.85,ENE,68,13.0,13.2,72,0.00,,---,0.00,VWS V14.01,2013-04-17 22:11:00,
2013-04-17 17:12:00,37.0,28.9,28.85,ENE,68,11.4,13.2,72,0.00,,---,0.00,VWS V14.01,2013-04-17 22:12:00,
2013-04-17 17:14:00,37.0,28.9,28.85,ENE,68,11.0,13.0,72,0.00,,---,0.00,VWS V14.01,2013-04-17 22:14:00,
2013-04-17 17:16:00,37.0,28.9,28.85,ENE,68,10.7,13.0,72,0.00,,---,0.00,VWS V14.01,2013-04-17 22:16:00,
2013-04-17 17:18:00,37.0,28.9,28.85,ENE,68,13.0,14.3,72,0.00,,---,0.00,VWS V14.01,2013-04-17 22:18:00,
2013-04-17 17:20:00,37.0,28.9,28.85,ENE,68,10.7,13.0,72,0.00,,---,0.00,VWS V14.01,2013-04-17 22:20:00,
2013-04-17 17:21:00,37.0,28.9,28.85,ENE,68,13.0,15.4,72,0.00,,---,0.00,VWS V14.01,2013-04-17 22:21:00,
2013-04-17 17:22:00,37.0,29.2,28.85,ENE,68,12.3,15.2,73,0.00,,---,0.00,VWS V14.01,2013-04-17 22:22:00,
2013-04-17 17:24:00,37.0,28.9,28.85,ENE,68,13.0,15.9,72,0.00,,---,0.00,VWS V14.01,2013-04-17 22:24:00,
2013-04-17 17:26:00,37.0,29.2,28.85,ENE,68,16.1,17.5,73,0.00,,---,0.00,VWS V14.01,2013-04-17 22:26:00,
2013-04-17 17:28:00,37.0,29.2,28.85,ENE,68,16.8,16.8,73,0.00,,---,0.00,VWS V14.01,2013-04-17 22:28:00,
2013-04-17 17:30:00,37.0,29.2,28.85,ENE,68,16.1,17.5,73,0.00,,---,0.00,VWS V14.01,2013-04-17 22:30:00,
2013-04-17 17:31:00,36.9,29.0,28.85,ENE,68,15.7,17.7,73,0.00,,---,0.00,VWS V14.01,2013-04-17 22:31:00,
2013-04-17 17:32:00,36.9,29.0,28.85,ENE,68,13.4,16.1,73,0.00,,---,0.00,VWS V14.01,2013-04-17 22:32:00,
2013-04-17 17:34:00,36.9,29.0,28.85,ENE,68,17.5,17.5,73,0.00,,---,0.00,VWS V14.01,2013-04-17 22:34:00,
2013-04-17 17:36:00,36.9,29.4,28.85,ENE,68,12.3,17.7,74,0.00,,---,0.00,VWS V14.01,2013-04-17 22:36:00,
2013-04-17 17:37:00,36.7,29.2,28.85,ENE,68,15.4,16.8,74,0.00,,---,0.00,VWS V14.01,2013-04-17 22:37:00,
2013-04-17 17:38:00,36.9,29.4,28.85,NE,45,14.1,15.7,74,0.00,,---,0.00,VWS V14.01,2013-04-17 22:38:00,
2013-04-17 17:40:00,36.7,29.2,28.85,ENE,68,16.8,16.8,74,0.00,,---,0.00,VWS V14.01,2013-04-17 22:40:00,
2013-04-17 17:42:00,36.7,29.2,28.85,NE,45,13.6,15.2,74,0.00,,---,0.00,VWS V14.01,2013-04-17 22:42:00,
2013-04-17 17:44:00,36.7,29.2,28.85,ENE,68,15.2,18.1,74,0.00,,---,0.00,VWS V14.01,2013-04-17 22:44:00,
2013-04-17 17:46:00,36.7,29.2,28.85,NE,45,13.6,15.2,74,0.00,,---,0.00,VWS V14.01,2013-04-17 22:46:00,
2013-04-17 17:47:00,36.7,29.2,28.85,ENE,68,12.3,12.3,74,0.00,,---,0.00,VWS V14.01,2013-04-17 22:47:00,
2013-04-17 17:48:00,36.7,29.5,28.85,ENE,68,13.0,17.5,75,0.00,,---,0.00,VWS V14.01,2013-04-17 22:48:00,
2013-04-17 17:50:00,36.7,29.5,28.85,ENE,68,12.3,15.9,75,0.00,,---,0.00,VWS V14.01,2013-04-17 22:50:00,
2013-04-17 17:52:00,36.7,29.8,28.85,NE,45,13.0,13.0,76,0.00,,---,0.00,VWS V14.01,2013-04-17 22:52:00,
2013-04-17 17:54:00,36.7,29.5,28.85,NE,45,12.3,14.8,75,0.00,,---,0.00,VWS V14.01,2013-04-17 22:54:00,
2013-04-17 17:56:00,36.7,29.8,28.85,ENE,68,14.8,14.8,76,0.00,,---,0.00,VWS V14.01,2013-04-17 22:56:00,
2013-04-17 17:57:00,36.5,29.7,28.85,ENE,68,14.3,14.3,76,0.00,,---,0.00,VWS V14.01,2013-04-17 22:57:00,
2013-04-17 17:58:00,36.7,29.8,28.85,ENE,68,13.6,14.8,76,0.00,,---,0.00,VWS V14.01,2013-04-17 22:58:00,
2013-04-17 18:00:00,36.5,29.7,28.85,ENE,68,9.8,13.6,76,0.00,,---,0.00,VWS V14.01,2013-04-17 23:00:00,
2013-04-17 18:02:00,36.5,29.7,28.85,ENE,68,13.4,15.4,76,0.00,,---,0.00,VWS V14.01,2013-04-17 23:02:00,
2013-04-17 18:04:00,36.5,29.7,28.85,ESE,112,12.1,15.4,76,0.00,,---,0.00,VWS V14.01,2013-04-17 23:04:00,
2013-04-17 18:06:00,36.5,29.7,28.85,ENE,68,12.8,15.4,76,0.00,,---,0.00,VWS V14.01,2013-04-17 23:06:00,
2013-04-17 18:07:00,36.5,29.7,28.85,ENE,68,12.3,12.3,76,0.00,,---,0.00,VWS V14.01,2013-04-17 23:07:00,
2013-04-17 18:08:00,36.5,29.7,28.85,ENE,68,13.0,14.5,76,0.00,,---,0.00,VWS V14.01,2013-04-17 23:08:00,
2013-04-17 18:10:00,36.5,29.7,28.85,ENE,68,11.4,16.6,76,0.00,,---,0.00,VWS V14.01,2013-04-17 23:10:00,
2013-04-17 18:12:00,36.3,29.8,28.85,ENE,68,17.2,17.2,77,0.00,,---,0.00,VWS V14.01,2013-04-17 23:12:00,
2013-04-17 18:14:00,36.3,29.8,28.85,ENE,68,15.9,15.9,77,0.00,,---,0.00,VWS V14.01,2013-04-17 23:14:00,
2013-04-17 18:16:00,36.3,29.8,28.85,ENE,68,10.3,17.2,77,0.00,,---,0.00,VWS V14.01,2013-04-17 23:16:00,
2013-04-17 18:17:00,36.1,30.3,28.85,ENE,68,10.7,11.0,79,0.00,,---,0.00,VWS V14.01,2013-04-17 23:17:00,
2013-04-17 18:18:00,36.3,30.1,28.85,NE,45,10.7,13.2,78,0.00,,---,0.00,VWS V14.01,2013-04-17 23:18:00,
2013-04-17 18:20:00,36.1,30.0,28.85,ENE,68,11.0,12.3,78,0.00,,---,0.00,VWS V14.01,2013-04-17 23:20:00,
2013-04-17 18:22:00,36.0,30.4,28.85,ENE,68,10.5,12.1,80,0.00,,---,0.00,VWS V14.01,2013-04-17 23:22:00,
2013-04-17 18:24:00,36.0,30.1,28.85,NE,45,12.1,12.1,79,0.00,,---,0.00,VWS V14.01,2013-04-17 23:24:00,
2013-04-17 18:26:00,36.0,30.4,28.85,NE,45,10.5,12.1,80,0.00,,---,0.00,VWS V14.01,2013-04-17 23:26:00,
2013-04-17 18:27:00,35.8,30.8,28.85,NE,45,10.1,10.7,82,0.00,,---,0.00,VWS V14.01,2013-04-17 23:27:00,
2013-04-17 18:28:00,35.8,30.5,28.85,East,90,10.3,11.4,81,0.00,,---,0.00,VWS V14.01,2013-04-17 23:28:00,
2013-04-17 18:30:00,35.8,30.8,28.85,NE,45,10.7,10.7,82,0.00,,---,0.00,VWS V14.01,2013-04-17 23:30:00,
2013-04-17 18:32:00,35.6,31.0,28.85,ENE,68,10.5,13.2,83,0.00,,---,0.00,VWS V14.01,2013-04-17 23:32:00,
2013-04-17 18:34:00,35.8,31.1,28.85,ENE,68,13.2,14.8,83,0.00,,---,0.00,VWS V14.01,2013-04-17 23:34:00,
2013-04-17 18:36:00,35.6,31.2,28.85,ENE,68,12.3,13.2,84,0.00,,---,0.00,VWS V14.01,2013-04-17 23:36:00,
2013-04-17 18:37:00,35.4,31.4,28.85,ENE,68,10.7,11.2,85,0.00,,---,0.00,VWS V14.01,2013-04-17 23:37:00,
2013-04-17 18:38:00,35.4,31.4,28.85,NNE,22,13.4,13.4,85,0.00,,---,0.00,VWS V14.01,2013-04-17 23:38:00,
2013-04-17 18:40:00,35.4,31.4,28.85,NE,45,11.2,13.4,85,0.00,,---,0.00,VWS V14.01,2013-04-17 23:40:00,
2013-04-17 18:42:00,35.2,31.8,28.85,ENE,68,9.6,10.3,87,0.00,,---,0.00,VWS V14.01,2013-04-17 23:42:00,
2013-04-17 18:44:00,35.2,31.8,28.85,ENE,68,7.6,10.5,87,0.00,,---,0.00,VWS V14.01,2013-04-17 23:44:00,
2013-04-17 18:46:00,35.1,31.6,28.85,ENE,68,10.1,10.3,87,0.00,,---,0.00,VWS V14.01,2013-04-17 23:46:00,
2013-04-17 18:47:00,35.1,31.9,28.85,NE,45,12.8,12.8,88,0.00,,---,0.00,VWS V14.01,2013-04-17 23:47:00,
2013-04-17 18:50:00,35.1,31.9,28.85,ENE,68,9.8,13.2,88,0.00,,---,0.00,VWS V14.01,2013-04-17 23:50:00,
2013-04-17 18:52:00,34.7,31.8,28.82,NNE,22,7.2,15.2,89,0.00,,---,0.00,VWS V14.01,2013-04-17 23:52:00,
2013-04-17 18:54:00,34.9,32.0,28.82,ENE,68,13.2,14.1,89,0.00,,---,0.00,VWS V14.01,2013-04-17 23:54:00,
2013-04-17 18:56:00,34.7,31.8,28.82,NE,45,7.8,15.2,89,0.00,,---,0.00,VWS V14.01,2013-04-17 23:56:00,
2013-04-17 18:57:00,34.5,31.9,28.82,NNE,22,7.4,10.1,90,0.00,,---,0.00,VWS V14.01,2013-04-17 23:57:00,
2013-04-17 18:58:00,34.7,31.8,28.82,ENE,68,9.4,9.4,89,0.00,,---,0.00,VWS V14.01,2013-04-17 23:58:00,
2013-04-17 19:00:00,34.5,31.9,28.82,NE,45,8.7,11.0,90,0.00,,---,0.00,VWS V14.01,2013-04-18 00:00:00,
2013-04-17 19:02:00,34.5,32.2,28.82,NNE,22,9.2,10.7,91,0.00,,---,0.00,VWS V14.01,2013-04-18 00:02:00,
2013-04-17 19:04:00,34.5,32.2,28.82,NE,45,9.0,10.7,91,0.00,,---,0.00,VWS V14.01,2013-04-18 00:04:00,
2013-04-17 19:06:00,34.5,32.2,28.82,NE,45,7.4,10.7,91,0.00,,---,0.00,VWS V14.01,2013-04-18 00:06:00,
2013-04-17 19:07:00,34.3,32.3,28.82,NE,45,7.2,7.8,92,0.00,,---,0.00,VWS V14.01,2013-04-18 00:07:00,
2013-04-17 19:08:00,34.5,32.2,28.82,ENE,68,9.8,10.5,91,0.00,,---,0.00,VWS V14.01,2013-04-18 00:08:00,
2013-04-17 19:10:00,34.5,32.2,28.82,NNE,22,6.5,10.3,91,0.00,,---,0.00,VWS V14.01,2013-04-18 00:10:00,
2013-04-17 19:12:00,34.3,32.3,28.82,NE,45,8.5,12.5,92,0.00,,---,0.00,VWS V14.01,2013-04-18 00:12:00,
2013-04-17 19:14:00,34.3,32.3,28.82,NE,45,12.5,12.5,92,0.00,,---,0.00,VWS V14.01,2013-04-18 00:14:00,
2013-04-17 19:16:00,34.3,32.3,28.82,NNE,22,10.3,12.5,92,0.00,,---,0.00,VWS V14.01,2013-04-18 00:16:00,
2013-04-17 19:17:00,34.3,32.5,28.82,NE,45,9.2,10.1,93,0.00,,---,0.00,VWS V14.01,2013-04-18 00:17:00,
2013-04-17 19:18:00,34.3,32.3,28.82,NE,45,10.1,10.3,92,0.00,,---,0.00,VWS V14.01,2013-04-18 00:18:00,
2013-04-17 19:20:00,34.3,32.5,28.82,NE,45,10.1,10.7,93,0.00,,---,0.00,VWS V14.01,2013-04-18 00:20:00,
2013-04-17 19:22:00,34.2,32.3,28.85,NE,45,5.4,7.8,93,0.00,,---,0.00,VWS V14.01,2013-04-18 00:22:00,
2013-04-17 19:24:00,34.3,32.5,28.85,ENE,68,7.6,10.5,93,0.00,,---,0.00,VWS V14.01,2013-04-18 00:24:00,
2013-04-17 19:26:00,34.2,32.3,28.85,NE,45,7.6,8.5,93,0.00,,---,0.00,VWS V14.01,2013-04-18 00:26:00,
2013-04-17 19:27:00,34.2,32.3,28.85,NE,45,5.4,7.2,93,0.00,,---,0.00,VWS V14.01,2013-04-18 00:27:00,
2013-04-17 19:28:00,34.2,32.3,28.85,NE,45,6.7,7.6,93,0.00,,---,0.00,VWS V14.01,2013-04-18 00:28:00,
2013-04-17 19:30:00,34.2,32.3,28.85,NNE,22,7.2,8.5,93,0.00,,---,0.00,VWS V14.01,2013-04-18 00:30:00,
2013-04-17 19:32:00,34.2,32.3,28.85,NNE,22,10.1,10.5,93,0.00,,---,0.00,VWS V14.01,2013-04-18 00:32:00,
2013-04-17 19:34:00,34.2,32.3,28.85,NE,45,7.8,10.7,93,0.00,,---,0.00,VWS V14.01,2013-04-18 00:34:00,
2013-04-17 19:36:00,34.2,32.3,28.85,NNE,22,7.6,10.5,93,0.00,,---,0.00,VWS V14.01,2013-04-18 00:36:00,
2013-04-17 19:37:00,34.0,32.4,28.85,NE,45,4.9,7.4,94,0.00,,---,0.00,VWS V14.01,2013-04-18 00:37:00,
2013-04-17 19:38:00,34.0,32.4,28.85,NE,45,8.7,8.7,94,0.00,,---,0.00,VWS V14.01,2013-04-18 00:38:00,
2013-04-17 19:40:00,34.0,32.4,28.85,NE,45,7.4,10.3,94,0.00,,---,0.00,VWS V14.01,2013-04-18 00:40:00,
2013-04-17 19:42:00,34.0,32.4,28.85,NE,45,6.0,8.5,94,0.00,,---,0.00,VWS V14.01,2013-04-18 00:42:00,
2013-04-17 19:44:00,34.0,32.4,28.85,NE,45,4.3,7.4,94,0.00,,---,0.00,VWS V14.01,2013-04-18 00:44:00,
2013-04-17 19:46:00,34.0,32.4,28.85,NNE,22,4.3,8.5,94,0.00,,---,0.00,VWS V14.01,2013-04-18 00:46:00,
2013-04-17 19:47:00,34.0,32.4,28.85,NE,45,6.3,8.1,94,0.00,,---,0.00,VWS V14.01,2013-04-18 00:47:00,
2013-04-17 19:48:00,34.0,32.4,28.85,NE,45,6.5,9.6,94,0.00,,---,0.00,VWS V14.01,2013-04-18 00:48:00,
2013-04-17 19:50:00,34.0,32.4,28.85,NE,45,8.1,10.5,94,0.00,,---,0.00,VWS V14.01,2013-04-18 00:50:00,
2013-04-17 19:52:00,33.8,32.3,28.85,ENE,68,7.8,13.0,94,0.00,,---,0.00,VWS V14.01,2013-04-18 00:52:00,
2013-04-17 19:54:00,33.8,32.3,28.85,NE,45,7.8,9.6,94,0.00,,---,0.00,VWS V14.01,2013-04-18 00:54:00,
2013-04-17 19:56:00,33.8,32.3,28.85,NE,45,7.8,13.0,94,0.00,,---,0.00,VWS V14.01,2013-04-18 00:56:00,
2013-04-17 19:57:00,33.8,32.3,28.82,NNE,22,6.5,8.7,94,0.00,,---,0.00,VWS V14.01,2013-04-18 00:57:00,
2013-04-17 19:58:00,33.8,32.3,28.82,NE,45,8.1,8.7,94,0.00,,---,0.00,VWS V14.01,2013-04-18 00:58:00,
2013-04-17 20:00:00,33.8,32.3,28.82,NE,45,5.8,8.7,94,0.00,,---,0.00,VWS V14.01,2013-04-18 01:00:00,
2013-04-17 20:02:00,33.8,32.5,28.82,NNE,22,11.0,11.0,95,0.00,,---,0.00,VWS V14.01,2013-04-18 01:02:00,
2013-04-17 20:04:00,33.8,32.5,28.82,NE,45,10.1,10.1,95,0.00,,---,0.00,VWS V14.01,2013-04-18 01:04:00,
2013-04-17 20:06:00,33.8,32.5,28.82,NE,45,8.1,11.0,95,0.00,,---,0.00,VWS V14.01,2013-04-18 01:06:00,
2013-04-17 20:07:00,33.6,32.3,28.82,NNE,22,6.5,12.8,95,0.00,,---,0.00,VWS V14.01,2013-04-18 01:07:00,
2013-04-17 20:08:00,33.8,32.5,28.82,NE,45,5.8,8.1,95,0.00,,---,0.00,VWS V14.01,2013-04-18 01:08:00,
2013-04-17 20:10:00,33.6,32.3,28.82,NE,45,11.0,11.0,95,0.00,,---,0.00,VWS V14.01,2013-04-18 01:10:00,
2013-04-17 20:12:00,33.6,32.6,28.82,NE,45,11.2,12.8,96,0.00,,---,0.00,VWS V14.01,2013-04-18 01:12:00,
2013-04-17 20:14:00,33.6,32.6,28.82,ENE,68,12.8,12.8,96,0.00,,---,0.00,VWS V14.01,2013-04-18 01:14:00,
2013-04-17 20:16:00,33.6,32.6,28.82,NE,45,12.3,12.8,96,0.00,,---,0.00,VWS V14.01,2013-04-18 01:16:00,
2013-04-17 20:17:00,33.6,32.6,28.82,NE,45,9.8,14.8,96,0.00,,---,0.00,VWS V14.01,2013-04-18 01:17:00,
2013-04-17 20:18:00,33.6,32.6,28.82,ENE,68,8.7,12.3,96,0.00,,---,0.00,VWS V14.01,2013-04-18 01:18:00,
2013-04-17 20:20:00,33.6,32.6,28.82,NE,45,9.8,10.7,96,0.00,,---,0.00,VWS V14.01,2013-04-18 01:20:00,
2013-04-17 20:22:00,33.6,32.6,28.82,ENE,68,7.8,9.8,96,0.00,,---,0.00,VWS V14.01,2013-04-18 01:22:00,
2013-04-17 20:24:00,33.6,32.6,28.82,NE,45,9.2,12.3,96,0.00,,---,0.00,VWS V14.01,2013-04-18 01:24:00,
2013-04-17 20:26:00,33.6,32.6,28.82,ENE,68,7.8,9.8,96,0.00,,---,0.00,VWS V14.01,2013-04-18 01:26:00,
2013-04-17 20:27:00,33.6,32.6,28.82,NE,45,10.5,12.3,96,0.00,,---,0.00,VWS V14.01,2013-04-18 01:27:00,
2013-04-17 20:28:00,33.6,32.6,28.82,NE,45,6.3,11.4,96,0.00,,---,0.00,VWS V14.01,2013-04-18 01:28:00,
2013-04-17 20:30:00,33.6,32.6,28.82,NNE,22,8.1,8.5,96,0.00,,---,0.00,VWS V14.01,2013-04-18 01:30:00,
2013-04-17 20:32:00,33.6,32.6,28.82,NE,45,10.3,13.0,96,0.00,,---,0.00,VWS V14.01,2013-04-18 01:32:00,
2013-04-17 20:34:00,33.6,32.6,28.82,NE,45,7.4,10.3,96,0.00,,---,0.00,VWS V14.01,2013-04-18 01:34:00,
2013-04-17 20:36:00,33.6,32.6,28.82,NE,45,10.3,13.0,96,0.00,,---,0.00,VWS V14.01,2013-04-18 01:36:00,
2013-04-17 20:37:00,33.6,32.6,28.82,NNE,22,8.1,12.8,96,0.00,,---,0.00,VWS V14.01,2013-04-18 01:37:00,
2013-04-17 20:38:00,33.6,32.6,28.82,ENE,68,10.1,13.2,96,0.00,,---,0.00,VWS V14.01,2013-04-18 01:38:00,
2013-04-17 20:40:00,33.6,32.6,28.82,NE,45,12.8,12.8,96,0.00,,---,0.00,VWS V14.01,2013-04-18 01:40:00,
2013-04-17 20:42:00,33.6,32.6,28.82,ENE,68,8.5,9.6,96,0.00,,---,0.00,VWS V14.01,2013-04-18 01:42:00,
2013-04-17 20:44:00,33.6,32.6,28.82,ENE,68,5.8,11.0,96,0.00,,---,0.00,VWS V14.01,2013-04-18 01:44:00,
2013-04-17 20:46:00,33.6,32.6,28.82,East,90,10.5,10.5,96,0.00,,---,0.00,VWS V14.01,2013-04-18 01:46:00,
2013-04-17 20:47:00,33.6,32.6,28.82,NE,45,7.8,10.7,96,0.00,,---,0.00,VWS V14.01,2013-04-18 01:47:00,
2013-04-17 20:48:00,33.6,32.6,28.82,NE,45,9.8,12.5,96,0.00,,---,0.00,VWS V14.01,2013-04-18 01:48:00,
2013-04-17 20:50:00,33.6,32.6,28.82,NE,45,8.5,9.8,96,0.00,,---,0.00,VWS V14.01,2013-04-18 01:50:00,
2013-04-17 20:52:00,33.6,32.6,28.85,NE,45,11.0,13.2,96,0.00,,---,0.00,VWS V14.01,2013-04-18 01:52:00,
2013-04-17 20:54:00,33.6,32.6,28.85,NE,45,9.4,12.8,96,0.00,,---,0.00,VWS V14.01,2013-04-18 01:54:00,
2013-04-17 20:56:00,33.6,32.6,28.85,NE,45,11.0,13.2,96,0.00,,---,0.00,VWS V14.01,2013-04-18 01:56:00,
2013-04-17 20:57:00,33.6,32.6,28.85,NNE,22,10.5,10.5,96,0.00,,---,0.00,VWS V14.01,2013-04-18 01:57:00,
2013-04-17 20:58:00,33.6,32.6,28.85,NE,45,10.1,12.8,96,0.00,,---,0.00,VWS V14.01,2013-04-18 01:58:00,
2013-04-17 21:00:00,33.6,32.6,28.85,NNE,22,10.5,10.5,96,0.00,,---,0.00,VWS V14.01,2013-04-18 02:00:00,
2013-04-17 21:02:00,33.6,32.6,28.85,NE,45,9.2,10.1,96,0.00,,---,0.00,VWS V14.01,2013-04-18 02:02:00,
2013-04-17 21:04:00,33.6,32.6,28.85,NE,45,12.1,12.5,96,0.00,,---,0.00,VWS V14.01,2013-04-18 02:04:00,
2013-04-17 21:06:00,33.6,32.6,28.85,NE,45,10.1,12.3,96,0.00,,---,0.00,VWS V14.01,2013-04-18 02:06:00,
2013-04-17 21:08:00,33.6,32.6,28.85,ENE,68,10.7,13.2,96,0.00,,---,0.00,VWS V14.01,2013-04-18 02:08:00,
2013-04-17 21:10:00,33.6,32.6,28.85,NE,45,13.2,15.2,96,0.00,,---,0.00,VWS V14.01,2013-04-18 02:10:00,
2013-04-17 21:12:00,33.6,32.9,28.85,NE,45,12.8,13.2,97,0.00,,---,0.00,VWS V14.01,2013-04-18 02:12:00,
2013-04-17 21:13:00,33.4,32.7,28.85,East,90,15.2,15.2,97,0.00,,---,0.00,VWS V14.01,2013-04-18 02:13:00,
2013-04-17 21:14:00,33.6,32.9,28.85,ENE,68,12.5,13.2,97,0.00,,---,0.00,VWS V14.01,2013-04-18 02:14:00,
2013-04-17 21:16:00,33.4,32.7,28.85,ENE,68,14.8,14.8,97,0.00,,---,0.00,VWS V14.01,2013-04-18 02:16:00,
2013-04-17 21:18:00,33.6,32.9,28.85,ENE,68,13.0,13.2,97,0.00,,---,0.00,VWS V14.01,2013-04-18 02:18:00,
2013-04-17 21:20:00,33.6,32.9,28.85,NE,45,13.2,14.1,97,0.00,,---,0.00,VWS V14.01,2013-04-18 02:20:00,
2013-04-17 21:23:00,33.4,32.7,28.85,ENE,68,14.8,17.7,97,0.00,,---,0.00,VWS V14.01,2013-04-18 02:23:00,
2013-04-17 21:24:00,33.4,32.7,28.85,ENE,68,15.4,17.2,97,0.00,,---,0.00,VWS V14.01,2013-04-18 02:24:00,
2013-04-17 21:26:00,33.4,32.7,28.85,ENE,68,14.8,17.7,97,0.00,,---,0.00,VWS V14.01,2013-04-18 02:26:00,
2013-04-17 21:28:00,33.3,32.5,28.85,ENE,68,13.2,15.2,97,0.00,,---,0.00,VWS V14.01,2013-04-18 02:28:00,
2013-04-17 21:30:00,33.3,32.5,28.85,ENE,68,12.5,14.5,97,0.00,,---,0.00,VWS V14.01,2013-04-18 02:30:00,
2013-04-17 21:32:00,33.3,32.5,28.85,ENE,68,14.5,15.2,97,0.00,,---,0.00,VWS V14.01,2013-04-18 02:32:00,
2013-04-17 21:33:00,33.3,32.5,28.85,NE,45,12.3,12.3,97,0.00,,---,0.00,VWS V14.01,2013-04-18 02:33:00,
2013-04-17 21:34:00,33.3,32.5,28.85,NE,45,12.5,14.5,97,0.00,,---,0.00,VWS V14.01,2013-04-18 02:34:00,
2013-04-17 21:36:00,33.3,32.5,28.85,NE,45,12.3,13.2,97,0.00,,---,0.00,VWS V14.01,2013-04-18 02:36:00,
2013-04-17 21:37:00,33.3,32.5,28.82,NE,45,13.6,13.6,97,0.00,,---,0.00,VWS V14.01,2013-04-18 02:37:00,
2013-04-17 21:38:00,33.3,32.5,28.85,NE,45,11.0,14.8,97,0.00,,---,0.00,VWS V14.01,2013-04-18 02:38:00,
2013-04-17 21:40:00,33.3,32.5,28.82,NE,45,13.2,17.2,97,0.00,,---,0.00,VWS V14.01,2013-04-18 02:40:00,
2013-04-17 21:42:00,33.3,32.5,28.82,NE,45,10.5,14.8,97,0.00,,---,0.00,VWS V14.01,2013-04-18 02:42:00,
2013-04-17 21:43:00,33.3,32.5,28.82,NE,45,15.9,16.3,97,0.00,,---,0.00,VWS V14.01,2013-04-18 02:43:00,
2013-04-17 21:44:00,33.3,32.5,28.82,NE,45,11.9,15.2,97,0.00,,---,0.00,VWS V14.01,2013-04-18 02:44:00,
2013-04-17 21:48:00,33.3,32.5,28.82,NE,45,15.4,17.0,97,0.00,,---,0.00,VWS V14.01,2013-04-18 02:48:00,
2013-04-17 21:50:00,33.3,32.5,28.82,ENE,68,14.5,16.6,97,0.00,,---,0.00,VWS V14.01,2013-04-18 02:50:00,
2013-04-17 21:52:00,33.3,32.5,28.82,ENE,68,12.5,17.0,97,0.00,,---,0.00,VWS V14.01,2013-04-18 02:52:00,
2013-04-17 21:53:00,33.3,32.5,28.79,NE,45,16.1,16.1,97,0.00,,---,0.00,VWS V14.01,2013-04-18 02:53:00,
2013-04-17 21:54:00,33.3,32.5,28.79,NE,45,14.1,14.8,97,0.00,,---,0.00,VWS V14.01,2013-04-18 02:54:00,
2013-04-17 21:56:00,33.3,32.5,28.79,NE,45,16.1,17.5,97,0.00,,---,0.00,VWS V14.01,2013-04-18 02:56:00,
2013-04-17 21:58:00,33.3,32.5,28.79,NE,45,12.8,13.2,97,0.00,,---,0.00,VWS V14.01,2013-04-18 02:58:00,
2013-04-17 22:00:00,33.3,32.5,28.79,NE,45,13.2,17.2,97,0.00,,---,0.00,VWS V14.01,2013-04-18 03:00:00,
2013-04-17 22:02:00,33.3,32.5,28.79,ENE,68,12.3,15.4,97,0.00,,---,0.00,VWS V14.01,2013-04-18 03:02:00,
2013-04-17 22:03:00,33.3,32.5,28.79,ENE,68,15.4,15.4,97,0.00,,---,0.00,VWS V14.01,2013-04-18 03:03:00,
2013-04-17 22:04:00,33.3,32.5,28.79,NE,45,15.4,18.6,97,0.00,,---,0.00,VWS V14.01,2013-04-18 03:04:00,
2013-04-17 22:06:00,33.3,32.5,28.79,NE,45,13.0,15.9,97,0.00,,---,0.00,VWS V14.01,2013-04-18 03:06:00,
2013-04-17 22:08:00,33.3,32.5,28.79,ENE,68,19.7,19.9,97,0.00,,---,0.00,VWS V14.01,2013-04-18 03:08:00,
2013-04-17 22:10:00,33.3,32.5,28.79,ENE,68,19.9,19.9,97,0.00,,---,0.00,VWS V14.01,2013-04-18 03:10:00,
2013-04-17 22:12:00,33.3,32.5,28.79,NE,45,18.6,22.2,97,0.00,,---,0.00,VWS V14.01,2013-04-18 03:12:00,
2013-04-17 22:13:00,33.3,32.5,28.79,NE,45,11.9,14.8,97,0.00,,---,0.00,VWS V14.01,2013-04-18 03:13:00,
2013-04-17 22:14:00,33.3,32.5,28.79,NE,45,12.3,18.6,97,0.00,,---,0.00,VWS V14.01,2013-04-18 03:14:00,
2013-04-17 22:16:00,33.3,32.5,28.79,NE,45,14.8,17.7,97,0.00,,---,0.00,VWS V14.01,2013-04-18 03:16:00,
2013-04-17 22:18:00,33.3,32.5,28.79,East,90,13.9,23.3,97,0.00,,---,0.00,VWS V14.01,2013-04-18 03:18:00,
2013-04-17 22:20:00,33.3,32.5,28.79,NE,45,17.5,18.1,97,0.00,,---,0.00,VWS V14.01,2013-04-18 03:20:00,
2013-04-17 22:22:00,33.3,32.5,28.79,ENE,68,22.6,23.3,97,0.00,,---,0.00,VWS V14.01,2013-04-18 03:22:00,
2013-04-17 22:23:00,33.3,32.2,28.79,ENE,68,18.1,19.7,96,0.00,,---,0.00,VWS V14.01,2013-04-18 03:23:00,
2013-04-17 22:24:00,33.3,32.5,28.79,ENE,68,22.2,22.6,97,0.00,,---,0.00,VWS V14.01,2013-04-18 03:24:00,
2013-04-17 22:26:00,33.3,32.2,28.79,NE,45,19.7,22.2,96,0.00,,---,0.00,VWS V14.01,2013-04-18 03:26:00,
2013-04-17 22:28:00,33.3,32.2,28.79,NE,45,15.9,18.8,96,0.00,,---,0.00,VWS V14.01,2013-04-18 03:28:00,
2013-04-17 22:30:00,33.3,32.2,28.79,ENE,68,18.8,19.9,96,0.00,,---,0.00,VWS V14.01,2013-04-18 03:30:00,
2013-04-17 22:32:00,33.3,32.2,28.79,NE,45,15.9,18.8,96,0.00,,---,0.00,VWS V14.01,2013-04-18 03:32:00,
2013-04-17 22:33:00,33.3,32.5,28.79,ENE,68,19.9,19.9,97,0.00,,---,0.00,VWS V14.01,2013-04-18 03:33:00,
2013-04-17 22:34:00,33.3,32.2,28.79,ENE,68,16.3,17.7,96,0.00,,---,0.00,VWS V14.01,2013-04-18 03:34:00,
2013-04-17 22:36:00,33.3,32.5,28.79,ENE,68,18.1,21.3,97,0.00,,---,0.00,VWS V14.01,2013-04-18 03:36:00,
2013-04-17 22:38:00,33.3,32.5,28.79,NE,45,13.2,15.2,97,0.00,,---,0.00,VWS V14.01,2013-04-18 03:38:00,
2013-04-17 22:40:00,33.3,32.5,28.79,ENE,68,15.2,19.9,97,0.00,,---,0.00,VWS V14.01,2013-04-18 03:40:00,
2013-04-17 22:42:00,33.3,32.5,28.79,NE,45,12.5,15.2,97,0.00,,---,0.00,VWS V14.01,2013-04-18 03:42:00,
2013-04-17 22:43:00,33.3,32.5,28.79,NNE,22,9.4,9.6,97,0.00,,---,0.00,VWS V14.01,2013-04-18 03:43:00,
2013-04-17 22:44:00,33.3,32.5,28.79,ENE,68,12.5,14.1,97,0.00,,---,0.00,VWS V14.01,2013-04-18 03:44:00,
2013-04-17 22:46:00,33.3,32.5,28.79,NE,45,9.6,14.8,97,0.00,,---,0.00,VWS V14.01,2013-04-18 03:46:00,
2013-04-17 22:48:00,33.3,32.5,28.79,NNE,22,6.3,12.5,97,0.00,,---,0.00,VWS V14.01,2013-04-18 03:48:00,
2013-04-17 22:50:00,33.3,32.5,28.79,ENE,68,12.5,12.5,97,0.00,,---,0.00,VWS V14.01,2013-04-18 03:50:00,
2013-04-17 22:52:00,33.3,32.5,28.79,NNE,22,6.3,12.5,97,0.00,,---,0.00,VWS V14.01,2013-04-18 03:52:00,
2013-04-17 22:53:00,33.3,32.5,28.82,NNE,22,10.1,10.5,97,0.00,,---,0.00,VWS V14.01,2013-04-18 03:53:00,
2013-04-17 22:54:00,33.3,32.5,28.82,NE,45,7.8,13.2,97,0.00,,---,0.00,VWS V14.01,2013-04-18 03:54:00,
2013-04-17 22:56:00,33.3,32.5,28.82,NNE,22,10.5,14.1,97,0.00,,---,0.00,VWS V14.01,2013-04-18 03:56:00,
2013-04-17 22:58:00,33.3,32.5,28.82,NNE,22,8.7,10.7,97,0.00,,---,0.00,VWS V14.01,2013-04-18 03:58:00,
2013-04-17 23:00:00,33.3,32.5,28.82,NNE,22,10.7,15.7,97,0.00,,---,0.00,VWS V14.01,2013-04-18 04:00:00,
2013-04-17 23:01:00,33.1,32.3,28.82,ENE,68,12.5,12.5,97,0.00,,---,0.00,VWS V14.01,2013-04-18 04:01:00,
2013-04-17 23:02:00,33.3,32.5,28.82,NNE,22,10.7,10.7,97,0.00,,---,0.00,VWS V14.01,2013-04-18 04:02:00,
2013-04-17 23:04:00,33.1,32.3,28.82,NE,45,12.5,12.5,97,0.00,,---,0.00,VWS V14.01,2013-04-18 04:04:00,
2013-04-17 23:06:00,33.1,32.3,28.79,NNE,22,11.0,15.4,97,0.00,,---,0.00,VWS V14.01,2013-04-18 04:06:00,
2013-04-17 23:08:00,33.1,32.3,28.82,NE,45,10.1,15.2,97,0.00,,---,0.00,VWS V14.01,2013-04-18 04:08:00,
2013-04-17 23:10:00,33.1,32.3,28.79,ENE,68,11.0,15.4,97,0.00,,---,0.00,VWS V14.01,2013-04-18 04:10:00,
2013-04-17 23:11:00,33.1,32.3,28.79,NE,45,12.1,16.6,97,0.00,,---,0.00,VWS V14.01,2013-04-18 04:11:00,
2013-04-17 23:12:00,33.1,32.3,28.79,NNE,22,12.5,14.8,97,0.00,,---,0.00,VWS V14.01,2013-04-18 04:12:00,
2013-04-17 23:14:00,33.1,32.3,28.79,NE,45,10.5,15.2,97,0.00,,---,0.00,VWS V14.01,2013-04-18 04:14:00,
2013-04-17 23:16:00,33.1,32.3,28.79,NE,45,11.2,13.0,97,0.00,,---,0.00,VWS V14.01,2013-04-18 04:16:00,
2013-04-17 23:18:00,33.1,32.3,28.79,NNE,22,13.0,16.6,97,0.00,,---,0.00,VWS V14.01,2013-04-18 04:18:00,
2013-04-17 23:20:00,33.1,32.3,28.79,NE,45,11.2,13.0,97,0.00,,---,0.00,VWS V14.01,2013-04-18 04:20:00,
2013-04-17 23:21:00,33.1,32.1,28.79,NNE,22,8.1,10.5,96,0.00,,---,0.00,VWS V14.01,2013-04-18 04:21:00,
2013-04-17 23:22:00,33.3,32.5,28.79,NNE,22,9.8,12.1,97,0.00,,---,0.00,VWS V14.01,2013-04-18 04:22:00,
2013-04-17 23:24:00,33.3,32.5,28.79,NE,45,10.5,13.0,97,0.00,,---,0.00,VWS V14.01,2013-04-18 04:24:00,
2013-04-17 23:26:00,33.1,32.3,28.79,NE,45,11.0,12.5,97,0.00,,---,0.00,VWS V14.01,2013-04-18 04:26:00,
2013-04-17 23:28:00,33.1,32.3,28.79,NNE,22,10.5,12.8,97,0.00,,---,0.00,VWS V14.01,2013-04-18 04:28:00,
2013-04-17 23:30:00,33.1,32.3,28.79,NE,45,11.0,12.5,97,0.00,,---,0.00,VWS V14.01,2013-04-18 04:30:00,
2013-04-17 23:31:00,33.1,32.3,28.79,NE,45,7.6,7.8,97,0.00,,---,0.00,VWS V14.01,2013-04-18 04:31:00,
2013-04-17 23:32:00,33.1,32.3,28.79,NE,45,9.8,12.3,97,0.00,,---,0.00,VWS V14.01,2013-04-18 04:32:00,
2013-04-17 23:34:00,33.1,32.3,28.79,NE,45,7.4,13.0,97,0.00,,---,0.00,VWS V14.01,2013-04-18 04:34:00,
2013-04-17 23:36:00,33.1,32.3,28.79,NE,45,11.0,15.2,97,0.00,,---,0.00,VWS V14.01,2013-04-18 04:36:00,
2013-04-17 23:38:00,33.1,32.3,28.79,NE,45,15.2,15.2,97,0.00,,---,0.00,VWS V14.01,2013-04-18 04:38:00,
2013-04-17 23:40:00,33.1,32.3,28.79,NE,45,11.0,15.2,97,0.00,,---,0.00,VWS V14.01,2013-04-18 04:40:00,
2013-04-17 23:41:00,33.1,32.3,28.79,NE,45,10.1,13.2,97,0.00,,---,0.00,VWS V14.01,2013-04-18 04:41:00,
2013-04-17 23:42:00,33.1,32.3,28.79,NE,45,8.1,11.2,97,0.00,,---,0.00,VWS V14.01,2013-04-18 04:42:00,
2013-04-17 23:44:00,33.1,32.3,28.79,NNE,22,13.2,13.2,97,0.00,,---,0.00,VWS V14.01,2013-04-18 04:44:00,
2013-04-17 23:46:00,33.1,32.3,28.79,NE,45,15.4,15.4,97,0.00,,---,0.00,VWS V14.01,2013-04-18 04:46:00,
2013-04-17 23:48:00,33.1,32.3,28.79,NE,45,12.3,12.5,97,0.00,,---,0.00,VWS V14.01,2013-04-18 04:48:00,
2013-04-17 23:50:00,33.1,32.3,28.79,NE,45,15.4,17.5,97,0.00,,---,0.00,VWS V14.01,2013-04-18 04:50:00,
2013-04-17 23:51:00,33.1,32.1,28.79,ENE,68,12.5,13.2,96,0.00,,---,0.00,VWS V14.01,2013-04-18 04:51:00,
2013-04-17 23:52:00,33.1,32.1,28.79,ENE,68,13.0,15.7,96,0.00,,---,0.00,VWS V14.01,2013-04-18 04:52:00,
2013-04-17 23:54:00,33.1,32.1,28.79,ENE,68,13.2,15.2,96,0.00,,---,0.00,VWS V14.01,2013-04-18 04:54:00,
2013-04-17 23:56:00,33.1,32.1,28.79,NE,45,11.0,15.4,96,0.00,,---,0.00,VWS V14.01,2013-04-18 04:56:00,
2013-04-17 23:58:00,33.1,32.1,28.79,NE,45,10.5,13.2,96,0.00,,---,0.00,VWS V14.01,2013-04-18 04:58:00,